<?xml version="1.0" encoding="UTF-8" standalone="no" ?>
<gpx xmlns="http://www.topografix.com/GPX/1/1" xmlns:xsi="http://www.w3.org/2001/XMLSchema-instance" xsi:schemaLocation="http://www.topografix.com/GPX/1/1 http://www.topografix.com/GPX/1/1/gpx.xsd" version="1.1" creator="VisuGPX - https://www.visugpx.com">
  <metadata>
    <name>Rando GERS Samedi</name>
    <desc><![CDATA[Rando CE TOS GERS samedi]]></desc>
  </metadata>
  <trk>
    <name><![CDATA[17 sept. 2011 Gers samedi]]></name>
    <cmt><![CDATA[17 sept. 2011 09:35:37]]></cmt>
    <trkseg>
      <trkpt lat="43.80509" lon="0.42998">
        <ele>70</ele>
        <time>2011-09-17T07:35:38Z</time>
      </trkpt>
      <trkpt lat="43.80509" lon="0.43009">
        <ele>77</ele>
        <time>2011-09-17T07:37:54Z</time>
      </trkpt>
      <trkpt lat="43.80505" lon="0.43023">
        <ele>77</ele>
        <time>2011-09-17T07:38:02Z</time>
      </trkpt>
      <trkpt lat="43.80488" lon="0.43034">
        <ele>78</ele>
        <time>2011-09-17T07:38:20Z</time>
      </trkpt>
      <trkpt lat="43.80451" lon="0.43018">
        <ele>79</ele>
        <time>2011-09-17T07:38:55Z</time>
      </trkpt>
      <trkpt lat="43.80406" lon="0.42996">
        <ele>79</ele>
        <time>2011-09-17T07:39:26Z</time>
      </trkpt>
      <trkpt lat="43.80368" lon="0.42981">
        <ele>80</ele>
        <time>2011-09-17T07:39:54Z</time>
      </trkpt>
      <trkpt lat="43.80361" lon="0.42972">
        <ele>80</ele>
        <time>2011-09-17T07:40:07Z</time>
      </trkpt>
      <trkpt lat="43.80327" lon="0.42948">
        <ele>82</ele>
        <time>2011-09-17T07:40:40Z</time>
      </trkpt>
      <trkpt lat="43.80295" lon="0.42928">
        <ele>83</ele>
        <time>2011-09-17T07:41:11Z</time>
      </trkpt>
      <trkpt lat="43.80252" lon="0.42896">
        <ele>85</ele>
        <time>2011-09-17T07:41:45Z</time>
      </trkpt>
      <trkpt lat="43.80218" lon="0.42877">
        <ele>90</ele>
        <time>2011-09-17T07:42:15Z</time>
      </trkpt>
      <trkpt lat="43.80176" lon="0.42843">
        <ele>95</ele>
        <time>2011-09-17T07:42:50Z</time>
      </trkpt>
      <trkpt lat="43.80136" lon="0.4281">
        <ele>100</ele>
        <time>2011-09-17T07:43:24Z</time>
      </trkpt>
      <trkpt lat="43.80102" lon="0.42782">
        <ele>104</ele>
        <time>2011-09-17T07:43:57Z</time>
      </trkpt>
      <trkpt lat="43.80067" lon="0.42771">
        <ele>108</ele>
        <time>2011-09-17T07:44:27Z</time>
      </trkpt>
      <trkpt lat="43.80029" lon="0.42768">
        <ele>111</ele>
        <time>2011-09-17T07:44:58Z</time>
      </trkpt>
      <trkpt lat="43.79987" lon="0.42762">
        <ele>112</ele>
        <time>2011-09-17T07:45:29Z</time>
      </trkpt>
      <trkpt lat="43.79944" lon="0.42761">
        <ele>112</ele>
        <time>2011-09-17T07:46:02Z</time>
      </trkpt>
      <trkpt lat="43.79903" lon="0.42747">
        <ele>112</ele>
        <time>2011-09-17T07:46:34Z</time>
      </trkpt>
      <trkpt lat="43.79857" lon="0.42738">
        <ele>113</ele>
        <time>2011-09-17T07:47:09Z</time>
      </trkpt>
      <trkpt lat="43.79822" lon="0.42728">
        <ele>114</ele>
        <time>2011-09-17T07:47:39Z</time>
      </trkpt>
      <trkpt lat="43.7979" lon="0.42724">
        <ele>113</ele>
        <time>2011-09-17T07:48:03Z</time>
      </trkpt>
      <trkpt lat="43.79783" lon="0.42718">
        <ele>113</ele>
        <time>2011-09-17T07:48:08Z</time>
      </trkpt>
      <trkpt lat="43.79737" lon="0.4271">
        <ele>116</ele>
        <time>2011-09-17T07:48:41Z</time>
      </trkpt>
      <trkpt lat="43.79696" lon="0.42703">
        <ele>117</ele>
        <time>2011-09-17T07:49:13Z</time>
      </trkpt>
      <trkpt lat="43.79691" lon="0.427">
        <ele>117</ele>
        <time>2011-09-17T07:49:18Z</time>
      </trkpt>
      <trkpt lat="43.79689" lon="0.42694">
        <ele>117</ele>
        <time>2011-09-17T07:49:22Z</time>
      </trkpt>
      <trkpt lat="43.79694" lon="0.42689">
        <ele>117</ele>
        <time>2011-09-17T07:49:27Z</time>
      </trkpt>
      <trkpt lat="43.79727" lon="0.42661">
        <ele>116</ele>
        <time>2011-09-17T07:50:03Z</time>
      </trkpt>
      <trkpt lat="43.79765" lon="0.42612">
        <ele>116</ele>
        <time>2011-09-17T07:50:34Z</time>
      </trkpt>
      <trkpt lat="43.79789" lon="0.42598">
        <ele>116</ele>
        <time>2011-09-17T07:50:49Z</time>
      </trkpt>
      <trkpt lat="43.79812" lon="0.4256">
        <ele>116</ele>
        <time>2011-09-17T07:51:21Z</time>
      </trkpt>
      <trkpt lat="43.79836" lon="0.4254">
        <ele>116</ele>
        <time>2011-09-17T07:51:42Z</time>
      </trkpt>
      <trkpt lat="43.79845" lon="0.42475">
        <ele>118</ele>
        <time>2011-09-17T07:52:14Z</time>
      </trkpt>
      <trkpt lat="43.7984" lon="0.42414">
        <ele>120</ele>
        <time>2011-09-17T07:52:44Z</time>
      </trkpt>
      <trkpt lat="43.79837" lon="0.42357">
        <ele>122</ele>
        <time>2011-09-17T07:53:16Z</time>
      </trkpt>
      <trkpt lat="43.79832" lon="0.42288">
        <ele>124</ele>
        <time>2011-09-17T07:53:51Z</time>
      </trkpt>
      <trkpt lat="43.79841" lon="0.42236">
        <ele>127</ele>
        <time>2011-09-17T07:54:21Z</time>
      </trkpt>
      <trkpt lat="43.7985" lon="0.42175">
        <ele>129</ele>
        <time>2011-09-17T07:54:54Z</time>
      </trkpt>
      <trkpt lat="43.79858" lon="0.42118">
        <ele>131</ele>
        <time>2011-09-17T07:55:27Z</time>
      </trkpt>
      <trkpt lat="43.79851" lon="0.42063">
        <ele>132</ele>
        <time>2011-09-17T07:55:59Z</time>
      </trkpt>
      <trkpt lat="43.79844" lon="0.4205">
        <ele>132</ele>
        <time>2011-09-17T07:56:07Z</time>
      </trkpt>
      <trkpt lat="43.79842" lon="0.42043">
        <ele>133</ele>
        <time>2011-09-17T07:56:15Z</time>
      </trkpt>
      <trkpt lat="43.79845" lon="0.42026">
        <ele>134</ele>
        <time>2011-09-17T07:56:35Z</time>
      </trkpt>
      <trkpt lat="43.79849" lon="0.4202">
        <ele>134</ele>
        <time>2011-09-17T07:56:45Z</time>
      </trkpt>
      <trkpt lat="43.79854" lon="0.41968">
        <ele>135</ele>
        <time>2011-09-17T07:57:16Z</time>
      </trkpt>
      <trkpt lat="43.79854" lon="0.41941">
        <ele>135</ele>
        <time>2011-09-17T07:57:38Z</time>
      </trkpt>
      <trkpt lat="43.79863" lon="0.419">
        <ele>136</ele>
        <time>2011-09-17T07:58:09Z</time>
      </trkpt>
      <trkpt lat="43.79875" lon="0.41844">
        <ele>139</ele>
        <time>2011-09-17T07:58:44Z</time>
      </trkpt>
      <trkpt lat="43.79887" lon="0.41788">
        <ele>141</ele>
        <time>2011-09-17T07:59:17Z</time>
      </trkpt>
      <trkpt lat="43.79895" lon="0.41732">
        <ele>145</ele>
        <time>2011-09-17T07:59:51Z</time>
      </trkpt>
      <trkpt lat="43.79913" lon="0.41679">
        <ele>148</ele>
        <time>2011-09-17T08:00:25Z</time>
      </trkpt>
      <trkpt lat="43.79924" lon="0.41665">
        <ele>150</ele>
        <time>2011-09-17T08:00:38Z</time>
      </trkpt>
      <trkpt lat="43.79933" lon="0.41608">
        <ele>153</ele>
        <time>2011-09-17T08:01:09Z</time>
      </trkpt>
      <trkpt lat="43.79939" lon="0.4155">
        <ele>156</ele>
        <time>2011-09-17T08:01:43Z</time>
      </trkpt>
      <trkpt lat="43.79934" lon="0.41537">
        <ele>158</ele>
        <time>2011-09-17T08:01:55Z</time>
      </trkpt>
      <trkpt lat="43.7993" lon="0.41533">
        <ele>158</ele>
        <time>2011-09-17T08:02:03Z</time>
      </trkpt>
      <trkpt lat="43.79924" lon="0.41512">
        <ele>159</ele>
        <time>2011-09-17T08:02:14Z</time>
      </trkpt>
      <trkpt lat="43.79928" lon="0.41461">
        <ele>162</ele>
        <time>2011-09-17T08:02:44Z</time>
      </trkpt>
      <trkpt lat="43.79933" lon="0.41414">
        <ele>165</ele>
        <time>2011-09-17T08:03:14Z</time>
      </trkpt>
      <trkpt lat="43.79943" lon="0.41365">
        <ele>167</ele>
        <time>2011-09-17T08:03:48Z</time>
      </trkpt>
      <trkpt lat="43.7996" lon="0.41318">
        <ele>169</ele>
        <time>2011-09-17T08:04:24Z</time>
      </trkpt>
      <trkpt lat="43.79965" lon="0.41299">
        <ele>170</ele>
        <time>2011-09-17T08:04:35Z</time>
      </trkpt>
      <trkpt lat="43.79969" lon="0.41294">
        <ele>171</ele>
        <time>2011-09-17T08:04:40Z</time>
      </trkpt>
      <trkpt lat="43.79974" lon="0.41291">
        <ele>172</ele>
        <time>2011-09-17T08:04:45Z</time>
      </trkpt>
      <trkpt lat="43.8001" lon="0.41301">
        <ele>175</ele>
        <time>2011-09-17T08:05:17Z</time>
      </trkpt>
      <trkpt lat="43.8005" lon="0.41318">
        <ele>177</ele>
        <time>2011-09-17T08:05:48Z</time>
      </trkpt>
      <trkpt lat="43.80093" lon="0.41343">
        <ele>180</ele>
        <time>2011-09-17T08:06:22Z</time>
      </trkpt>
      <trkpt lat="43.80135" lon="0.4137">
        <ele>183</ele>
        <time>2011-09-17T08:06:57Z</time>
      </trkpt>
      <trkpt lat="43.80167" lon="0.41393">
        <ele>185</ele>
        <time>2011-09-17T08:07:31Z</time>
      </trkpt>
      <trkpt lat="43.80171" lon="0.41406">
        <ele>185</ele>
        <time>2011-09-17T08:07:43Z</time>
      </trkpt>
      <trkpt lat="43.80174" lon="0.4141">
        <ele>186</ele>
        <time>2011-09-17T08:08:37Z</time>
      </trkpt>
      <trkpt lat="43.80185" lon="0.41413">
        <ele>187</ele>
        <time>2011-09-17T08:08:58Z</time>
      </trkpt>
      <trkpt lat="43.80189" lon="0.41414">
        <ele>188</ele>
        <time>2011-09-17T08:09:26Z</time>
      </trkpt>
      <trkpt lat="43.80194" lon="0.41412">
        <ele>189</ele>
        <time>2011-09-17T08:09:33Z</time>
      </trkpt>
      <trkpt lat="43.80196" lon="0.4141">
        <ele>189</ele>
        <time>2011-09-17T08:09:43Z</time>
      </trkpt>
      <trkpt lat="43.802" lon="0.4141">
        <ele>190</ele>
        <time>2011-09-17T08:11:21Z</time>
      </trkpt>
      <trkpt lat="43.80228" lon="0.41419">
        <ele>189</ele>
        <time>2011-09-17T08:11:51Z</time>
      </trkpt>
      <trkpt lat="43.80257" lon="0.41432">
        <ele>187</ele>
        <time>2011-09-17T08:12:21Z</time>
      </trkpt>
      <trkpt lat="43.80293" lon="0.41445">
        <ele>184</ele>
        <time>2011-09-17T08:12:55Z</time>
      </trkpt>
      <trkpt lat="43.80332" lon="0.41463">
        <ele>181</ele>
        <time>2011-09-17T08:13:28Z</time>
      </trkpt>
      <trkpt lat="43.80373" lon="0.41481">
        <ele>179</ele>
        <time>2011-09-17T08:14:02Z</time>
      </trkpt>
      <trkpt lat="43.80418" lon="0.41492">
        <ele>175</ele>
        <time>2011-09-17T08:14:38Z</time>
      </trkpt>
      <trkpt lat="43.80448" lon="0.41513">
        <ele>172</ele>
        <time>2011-09-17T08:15:07Z</time>
      </trkpt>
      <trkpt lat="43.80447" lon="0.41526">
        <ele>172</ele>
        <time>2011-09-17T08:15:15Z</time>
      </trkpt>
      <trkpt lat="43.80455" lon="0.41556">
        <ele>171</ele>
        <time>2011-09-17T08:15:38Z</time>
      </trkpt>
      <trkpt lat="43.80458" lon="0.41612">
        <ele>171</ele>
        <time>2011-09-17T08:16:12Z</time>
      </trkpt>
      <trkpt lat="43.80469" lon="0.41641">
        <ele>171</ele>
        <time>2011-09-17T08:16:32Z</time>
      </trkpt>
      <trkpt lat="43.80477" lon="0.41646">
        <ele>172</ele>
        <time>2011-09-17T08:16:48Z</time>
      </trkpt>
      <trkpt lat="43.80512" lon="0.41645">
        <ele>176</ele>
        <time>2011-09-17T08:17:24Z</time>
      </trkpt>
      <trkpt lat="43.80531" lon="0.41632">
        <ele>178</ele>
        <time>2011-09-17T08:17:45Z</time>
      </trkpt>
      <trkpt lat="43.80548" lon="0.41582">
        <ele>178</ele>
        <time>2011-09-17T08:18:17Z</time>
      </trkpt>
      <trkpt lat="43.80549" lon="0.41575">
        <ele>178</ele>
        <time>2011-09-17T08:18:21Z</time>
      </trkpt>
      <trkpt lat="43.80557" lon="0.41566">
        <ele>178</ele>
        <time>2011-09-17T08:18:28Z</time>
      </trkpt>
      <trkpt lat="43.80591" lon="0.41554">
        <ele>178</ele>
        <time>2011-09-17T08:18:59Z</time>
      </trkpt>
      <trkpt lat="43.80628" lon="0.41534">
        <ele>177</ele>
        <time>2011-09-17T08:19:30Z</time>
      </trkpt>
      <trkpt lat="43.80664" lon="0.41509">
        <ele>175</ele>
        <time>2011-09-17T08:20:02Z</time>
      </trkpt>
      <trkpt lat="43.80678" lon="0.41505">
        <ele>173</ele>
        <time>2011-09-17T08:20:14Z</time>
      </trkpt>
      <trkpt lat="43.80717" lon="0.41505">
        <ele>168</ele>
        <time>2011-09-17T08:20:47Z</time>
      </trkpt>
      <trkpt lat="43.8076" lon="0.41509">
        <ele>162</ele>
        <time>2011-09-17T08:21:22Z</time>
      </trkpt>
      <trkpt lat="43.80798" lon="0.41509">
        <ele>157</ele>
        <time>2011-09-17T08:21:53Z</time>
      </trkpt>
      <trkpt lat="43.80836" lon="0.41511">
        <ele>152</ele>
        <time>2011-09-17T08:22:24Z</time>
      </trkpt>
      <trkpt lat="43.80846" lon="0.41514">
        <ele>151</ele>
        <time>2011-09-17T08:22:32Z</time>
      </trkpt>
      <trkpt lat="43.80862" lon="0.41501">
        <ele>150</ele>
        <time>2011-09-17T08:22:45Z</time>
      </trkpt>
      <trkpt lat="43.80887" lon="0.41458">
        <ele>147</ele>
        <time>2011-09-17T08:23:17Z</time>
      </trkpt>
      <trkpt lat="43.80896" lon="0.41413">
        <ele>146</ele>
        <time>2011-09-17T08:23:47Z</time>
      </trkpt>
      <trkpt lat="43.80907" lon="0.41362">
        <ele>147</ele>
        <time>2011-09-17T08:24:17Z</time>
      </trkpt>
      <trkpt lat="43.80931" lon="0.41314">
        <ele>148</ele>
        <time>2011-09-17T08:24:49Z</time>
      </trkpt>
      <trkpt lat="43.80966" lon="0.41279">
        <ele>149</ele>
        <time>2011-09-17T08:25:21Z</time>
      </trkpt>
      <trkpt lat="43.80993" lon="0.41234">
        <ele>152</ele>
        <time>2011-09-17T08:25:54Z</time>
      </trkpt>
      <trkpt lat="43.81012" lon="0.41184">
        <ele>154</ele>
        <time>2011-09-17T08:26:25Z</time>
      </trkpt>
      <trkpt lat="43.81043" lon="0.41142">
        <ele>157</ele>
        <time>2011-09-17T08:26:57Z</time>
      </trkpt>
      <trkpt lat="43.81046" lon="0.41142">
        <ele>157</ele>
        <time>2011-09-17T08:27:05Z</time>
      </trkpt>
      <trkpt lat="43.81049" lon="0.41146">
        <ele>160</ele>
        <time>2011-09-17T08:30:00Z</time>
      </trkpt>
      <trkpt lat="43.81052" lon="0.41141">
        <ele>160</ele>
        <time>2011-09-17T08:30:30Z</time>
      </trkpt>
      <trkpt lat="43.81057" lon="0.4114">
        <ele>160</ele>
        <time>2011-09-17T08:30:35Z</time>
      </trkpt>
      <trkpt lat="43.81094" lon="0.41147">
        <ele>162</ele>
        <time>2011-09-17T08:31:08Z</time>
      </trkpt>
      <trkpt lat="43.81128" lon="0.41158">
        <ele>162</ele>
        <time>2011-09-17T08:31:41Z</time>
      </trkpt>
      <trkpt lat="43.81167" lon="0.41163">
        <ele>164</ele>
        <time>2011-09-17T08:32:14Z</time>
      </trkpt>
      <trkpt lat="43.81187" lon="0.41163">
        <ele>165</ele>
        <time>2011-09-17T08:32:32Z</time>
      </trkpt>
      <trkpt lat="43.81191" lon="0.41157">
        <ele>166</ele>
        <time>2011-09-17T08:32:37Z</time>
      </trkpt>
      <trkpt lat="43.81206" lon="0.41103">
        <ele>170</ele>
        <time>2011-09-17T08:33:08Z</time>
      </trkpt>
      <trkpt lat="43.81223" lon="0.41052">
        <ele>174</ele>
        <time>2011-09-17T08:33:38Z</time>
      </trkpt>
      <trkpt lat="43.81234" lon="0.41008">
        <ele>177</ele>
        <time>2011-09-17T08:34:09Z</time>
      </trkpt>
      <trkpt lat="43.81253" lon="0.40965">
        <ele>180</ele>
        <time>2011-09-17T08:34:43Z</time>
      </trkpt>
      <trkpt lat="43.81281" lon="0.40925">
        <ele>182</ele>
        <time>2011-09-17T08:35:15Z</time>
      </trkpt>
      <trkpt lat="43.81305" lon="0.40886">
        <ele>185</ele>
        <time>2011-09-17T08:35:47Z</time>
      </trkpt>
      <trkpt lat="43.81328" lon="0.40846">
        <ele>186</ele>
        <time>2011-09-17T08:36:18Z</time>
      </trkpt>
      <trkpt lat="43.81343" lon="0.40799">
        <ele>187</ele>
        <time>2011-09-17T08:36:50Z</time>
      </trkpt>
      <trkpt lat="43.81363" lon="0.40745">
        <ele>188</ele>
        <time>2011-09-17T08:37:24Z</time>
      </trkpt>
      <trkpt lat="43.81388" lon="0.40703">
        <ele>191</ele>
        <time>2011-09-17T08:38:00Z</time>
      </trkpt>
      <trkpt lat="43.814" lon="0.40682">
        <ele>192</ele>
        <time>2011-09-17T08:38:15Z</time>
      </trkpt>
      <trkpt lat="43.81435" lon="0.40659">
        <ele>195</ele>
        <time>2011-09-17T08:38:48Z</time>
      </trkpt>
      <trkpt lat="43.81477" lon="0.40633">
        <ele>196</ele>
        <time>2011-09-17T08:39:22Z</time>
      </trkpt>
      <trkpt lat="43.81514" lon="0.4063">
        <ele>196</ele>
        <time>2011-09-17T08:39:53Z</time>
      </trkpt>
      <trkpt lat="43.8155" lon="0.40647">
        <ele>195</ele>
        <time>2011-09-17T08:40:25Z</time>
      </trkpt>
      <trkpt lat="43.81581" lon="0.40676">
        <ele>194</ele>
        <time>2011-09-17T08:40:56Z</time>
      </trkpt>
      <trkpt lat="43.81604" lon="0.4072">
        <ele>190</ele>
        <time>2011-09-17T08:41:27Z</time>
      </trkpt>
      <trkpt lat="43.81621" lon="0.40751">
        <ele>188</ele>
        <time>2011-09-17T08:41:43Z</time>
      </trkpt>
      <trkpt lat="43.81627" lon="0.40809">
        <ele>185</ele>
        <time>2011-09-17T08:42:21Z</time>
      </trkpt>
      <trkpt lat="43.81629" lon="0.40824">
        <ele>186</ele>
        <time>2011-09-17T08:42:31Z</time>
      </trkpt>
      <trkpt lat="43.81651" lon="0.40878">
        <ele>187</ele>
        <time>2011-09-17T08:43:04Z</time>
      </trkpt>
      <trkpt lat="43.8166" lon="0.40904">
        <ele>187</ele>
        <time>2011-09-17T08:43:19Z</time>
      </trkpt>
      <trkpt lat="43.81664" lon="0.40946">
        <ele>189</ele>
        <time>2011-09-17T08:43:48Z</time>
      </trkpt>
      <trkpt lat="43.81677" lon="0.40984">
        <ele>189</ele>
        <time>2011-09-17T08:44:07Z</time>
      </trkpt>
      <trkpt lat="43.81675" lon="0.41046">
        <ele>190</ele>
        <time>2011-09-17T08:44:41Z</time>
      </trkpt>
      <trkpt lat="43.81677" lon="0.41052">
        <ele>190</ele>
        <time>2011-09-17T08:44:45Z</time>
      </trkpt>
      <trkpt lat="43.81681" lon="0.41056">
        <ele>190</ele>
        <time>2011-09-17T08:44:49Z</time>
      </trkpt>
      <trkpt lat="43.81722" lon="0.41058">
        <ele>191</ele>
        <time>2011-09-17T08:45:19Z</time>
      </trkpt>
      <trkpt lat="43.81763" lon="0.41069">
        <ele>192</ele>
        <time>2011-09-17T08:45:53Z</time>
      </trkpt>
      <trkpt lat="43.81767" lon="0.41073">
        <ele>193</ele>
        <time>2011-09-17T08:45:57Z</time>
      </trkpt>
      <trkpt lat="43.8177" lon="0.41094">
        <ele>193</ele>
        <time>2011-09-17T08:46:12Z</time>
      </trkpt>
      <trkpt lat="43.8178" lon="0.41153">
        <ele>194</ele>
        <time>2011-09-17T08:46:46Z</time>
      </trkpt>
      <trkpt lat="43.81798" lon="0.41203">
        <ele>192</ele>
        <time>2011-09-17T08:47:22Z</time>
      </trkpt>
      <trkpt lat="43.8181" lon="0.41259">
        <ele>191</ele>
        <time>2011-09-17T08:47:54Z</time>
      </trkpt>
      <trkpt lat="43.81817" lon="0.41322">
        <ele>190</ele>
        <time>2011-09-17T08:48:27Z</time>
      </trkpt>
      <trkpt lat="43.81827" lon="0.41377">
        <ele>189</ele>
        <time>2011-09-17T08:48:57Z</time>
      </trkpt>
      <trkpt lat="43.81831" lon="0.41431">
        <ele>187</ele>
        <time>2011-09-17T08:49:29Z</time>
      </trkpt>
      <trkpt lat="43.81832" lon="0.41491">
        <ele>186</ele>
        <time>2011-09-17T08:50:04Z</time>
      </trkpt>
      <trkpt lat="43.81835" lon="0.41503">
        <ele>185</ele>
        <time>2011-09-17T08:50:12Z</time>
      </trkpt>
      <trkpt lat="43.81839" lon="0.41507">
        <ele>185</ele>
        <time>2011-09-17T08:50:17Z</time>
      </trkpt>
      <trkpt lat="43.81845" lon="0.41508">
        <ele>185</ele>
        <time>2011-09-17T08:50:25Z</time>
      </trkpt>
      <trkpt lat="43.81868" lon="0.41493">
        <ele>185</ele>
        <time>2011-09-17T08:50:58Z</time>
      </trkpt>
      <trkpt lat="43.819" lon="0.41496">
        <ele>185</ele>
        <time>2011-09-17T08:51:27Z</time>
      </trkpt>
      <trkpt lat="43.81949" lon="0.41489">
        <ele>187</ele>
        <time>2011-09-17T08:52:04Z</time>
      </trkpt>
      <trkpt lat="43.81986" lon="0.41475">
        <ele>188</ele>
        <time>2011-09-17T08:52:34Z</time>
      </trkpt>
      <trkpt lat="43.82015" lon="0.41445">
        <ele>189</ele>
        <time>2011-09-17T08:53:05Z</time>
      </trkpt>
      <trkpt lat="43.82047" lon="0.41409">
        <ele>191</ele>
        <time>2011-09-17T08:53:38Z</time>
      </trkpt>
      <trkpt lat="43.82081" lon="0.41369">
        <ele>193</ele>
        <time>2011-09-17T08:54:14Z</time>
      </trkpt>
      <trkpt lat="43.82121" lon="0.41343">
        <ele>194</ele>
        <time>2011-09-17T08:54:49Z</time>
      </trkpt>
      <trkpt lat="43.82156" lon="0.41308">
        <ele>193</ele>
        <time>2011-09-17T08:55:20Z</time>
      </trkpt>
      <trkpt lat="43.82183" lon="0.41275">
        <ele>194</ele>
        <time>2011-09-17T08:55:47Z</time>
      </trkpt>
      <trkpt lat="43.82221" lon="0.41274">
        <ele>194</ele>
        <time>2011-09-17T08:56:19Z</time>
      </trkpt>
      <trkpt lat="43.82262" lon="0.41274">
        <ele>193</ele>
        <time>2011-09-17T08:56:53Z</time>
      </trkpt>
      <trkpt lat="43.82307" lon="0.41267">
        <ele>192</ele>
        <time>2011-09-17T08:57:26Z</time>
      </trkpt>
      <trkpt lat="43.82343" lon="0.41263">
        <ele>191</ele>
        <time>2011-09-17T08:58:00Z</time>
      </trkpt>
      <trkpt lat="43.82391" lon="0.41251">
        <ele>191</ele>
        <time>2011-09-17T08:58:36Z</time>
      </trkpt>
      <trkpt lat="43.8241" lon="0.41244">
        <ele>191</ele>
        <time>2011-09-17T08:58:59Z</time>
      </trkpt>
      <trkpt lat="43.82451" lon="0.41228">
        <ele>188</ele>
        <time>2011-09-17T08:59:34Z</time>
      </trkpt>
      <trkpt lat="43.82512" lon="0.41206">
        <ele>185</ele>
        <time>2011-09-17T09:00:09Z</time>
      </trkpt>
      <trkpt lat="43.82546" lon="0.41194">
        <ele>182</ele>
        <time>2011-09-17T09:00:39Z</time>
      </trkpt>
      <trkpt lat="43.82578" lon="0.4118">
        <ele>180</ele>
        <time>2011-09-17T09:01:10Z</time>
      </trkpt>
      <trkpt lat="43.82588" lon="0.41176">
        <ele>180</ele>
        <time>2011-09-17T09:01:17Z</time>
      </trkpt>
      <trkpt lat="43.82614" lon="0.41156">
        <ele>182</ele>
        <time>2011-09-17T09:01:49Z</time>
      </trkpt>
      <trkpt lat="43.82639" lon="0.41133">
        <ele>185</ele>
        <time>2011-09-17T09:02:18Z</time>
      </trkpt>
      <trkpt lat="43.82644" lon="0.41134">
        <ele>186</ele>
        <time>2011-09-17T09:02:19Z</time>
      </trkpt>
      <trkpt lat="43.82644" lon="0.41128">
        <ele>189</ele>
        <time>2011-09-17T09:03:26Z</time>
      </trkpt>
      <trkpt lat="43.8265" lon="0.41119">
        <ele>189</ele>
        <time>2011-09-17T09:03:34Z</time>
      </trkpt>
      <trkpt lat="43.82662" lon="0.41115">
        <ele>189</ele>
        <time>2011-09-17T09:03:47Z</time>
      </trkpt>
      <trkpt lat="43.82709" lon="0.41122">
        <ele>189</ele>
        <time>2011-09-17T09:04:18Z</time>
      </trkpt>
      <trkpt lat="43.82751" lon="0.41119">
        <ele>189</ele>
        <time>2011-09-17T09:04:48Z</time>
      </trkpt>
      <trkpt lat="43.82779" lon="0.41079">
        <ele>189</ele>
        <time>2011-09-17T09:05:20Z</time>
      </trkpt>
      <trkpt lat="43.82809" lon="0.41035">
        <ele>190</ele>
        <time>2011-09-17T09:05:51Z</time>
      </trkpt>
      <trkpt lat="43.82846" lon="0.41011">
        <ele>190</ele>
        <time>2011-09-17T09:06:24Z</time>
      </trkpt>
      <trkpt lat="43.82887" lon="0.41003">
        <ele>191</ele>
        <time>2011-09-17T09:06:56Z</time>
      </trkpt>
      <trkpt lat="43.82933" lon="0.41015">
        <ele>190</ele>
        <time>2011-09-17T09:07:31Z</time>
      </trkpt>
      <trkpt lat="43.82967" lon="0.41026">
        <ele>188</ele>
        <time>2011-09-17T09:08:08Z</time>
      </trkpt>
      <trkpt lat="43.83002" lon="0.41078">
        <ele>183</ele>
        <time>2011-09-17T09:08:44Z</time>
      </trkpt>
      <trkpt lat="43.83019" lon="0.41144">
        <ele>182</ele>
        <time>2011-09-17T09:09:15Z</time>
      </trkpt>
      <trkpt lat="43.83022" lon="0.41149">
        <ele>182</ele>
        <time>2011-09-17T09:09:25Z</time>
      </trkpt>
      <trkpt lat="43.83034" lon="0.41149">
        <ele>181</ele>
        <time>2011-09-17T09:10:04Z</time>
      </trkpt>
      <trkpt lat="43.83072" lon="0.41143">
        <ele>181</ele>
        <time>2011-09-17T09:10:38Z</time>
      </trkpt>
      <trkpt lat="43.83086" lon="0.41148">
        <ele>181</ele>
        <time>2011-09-17T09:10:51Z</time>
      </trkpt>
      <trkpt lat="43.83091" lon="0.41144">
        <ele>181</ele>
        <time>2011-09-17T09:10:57Z</time>
      </trkpt>
      <trkpt lat="43.83103" lon="0.4111">
        <ele>180</ele>
        <time>2011-09-17T09:11:28Z</time>
      </trkpt>
      <trkpt lat="43.83111" lon="0.41077">
        <ele>178</ele>
        <time>2011-09-17T09:11:52Z</time>
      </trkpt>
      <trkpt lat="43.83138" lon="0.41039">
        <ele>176</ele>
        <time>2011-09-17T09:12:24Z</time>
      </trkpt>
      <trkpt lat="43.83159" lon="0.41014">
        <ele>174</ele>
        <time>2011-09-17T09:12:55Z</time>
      </trkpt>
      <trkpt lat="43.83189" lon="0.40978">
        <ele>171</ele>
        <time>2011-09-17T09:13:32Z</time>
      </trkpt>
      <trkpt lat="43.83222" lon="0.40929">
        <ele>170</ele>
        <time>2011-09-17T09:14:02Z</time>
      </trkpt>
      <trkpt lat="43.83236" lon="0.40912">
        <ele>170</ele>
        <time>2011-09-17T09:14:15Z</time>
      </trkpt>
      <trkpt lat="43.83258" lon="0.4087">
        <ele>170</ele>
        <time>2011-09-17T09:14:46Z</time>
      </trkpt>
      <trkpt lat="43.83289" lon="0.4083">
        <ele>171</ele>
        <time>2011-09-17T09:15:15Z</time>
      </trkpt>
      <trkpt lat="43.83297" lon="0.40787">
        <ele>172</ele>
        <time>2011-09-17T09:15:35Z</time>
      </trkpt>
      <trkpt lat="43.83328" lon="0.40744">
        <ele>172</ele>
        <time>2011-09-17T09:16:12Z</time>
      </trkpt>
      <trkpt lat="43.8334" lon="0.40723">
        <ele>172</ele>
        <time>2011-09-17T09:16:29Z</time>
      </trkpt>
      <trkpt lat="43.83347" lon="0.40661">
        <ele>173</ele>
        <time>2011-09-17T09:17:00Z</time>
      </trkpt>
      <trkpt lat="43.83359" lon="0.40641">
        <ele>173</ele>
        <time>2011-09-17T09:17:17Z</time>
      </trkpt>
      <trkpt lat="43.83389" lon="0.40606">
        <ele>172</ele>
        <time>2011-09-17T09:17:46Z</time>
      </trkpt>
      <trkpt lat="43.83401" lon="0.4055">
        <ele>170</ele>
        <time>2011-09-17T09:18:20Z</time>
      </trkpt>
      <trkpt lat="43.83418" lon="0.40485">
        <ele>169</ele>
        <time>2011-09-17T09:18:57Z</time>
      </trkpt>
      <trkpt lat="43.83431" lon="0.40434">
        <ele>168</ele>
        <time>2011-09-17T09:19:28Z</time>
      </trkpt>
      <trkpt lat="43.83453" lon="0.40383">
        <ele>168</ele>
        <time>2011-09-17T09:20:03Z</time>
      </trkpt>
      <trkpt lat="43.83488" lon="0.40349">
        <ele>168</ele>
        <time>2011-09-17T09:20:47Z</time>
      </trkpt>
      <trkpt lat="43.83488" lon="0.40342">
        <ele>168</ele>
        <time>2011-09-17T09:20:51Z</time>
      </trkpt>
      <trkpt lat="43.83485" lon="0.40335">
        <ele>168</ele>
        <time>2011-09-17T09:20:55Z</time>
      </trkpt>
      <trkpt lat="43.83458" lon="0.40303">
        <ele>167</ele>
        <time>2011-09-17T09:21:27Z</time>
      </trkpt>
      <trkpt lat="43.83433" lon="0.4027">
        <ele>166</ele>
        <time>2011-09-17T09:21:59Z</time>
      </trkpt>
      <trkpt lat="43.83418" lon="0.40241">
        <ele>165</ele>
        <time>2011-09-17T09:22:21Z</time>
      </trkpt>
      <trkpt lat="43.83421" lon="0.40236">
        <ele>165</ele>
        <time>2011-09-17T09:22:25Z</time>
      </trkpt>
      <trkpt lat="43.83423" lon="0.4023">
        <ele>165</ele>
        <time>2011-09-17T09:22:29Z</time>
      </trkpt>
      <trkpt lat="43.83428" lon="0.40227">
        <ele>164</ele>
        <time>2011-09-17T09:22:42Z</time>
      </trkpt>
      <trkpt lat="43.8345" lon="0.40181">
        <ele>160</ele>
        <time>2011-09-17T09:23:13Z</time>
      </trkpt>
      <trkpt lat="43.83476" lon="0.40136">
        <ele>157</ele>
        <time>2011-09-17T09:23:46Z</time>
      </trkpt>
      <trkpt lat="43.83501" lon="0.40102">
        <ele>156</ele>
        <time>2011-09-17T09:24:16Z</time>
      </trkpt>
      <trkpt lat="43.8353" lon="0.40064">
        <ele>154</ele>
        <time>2011-09-17T09:24:49Z</time>
      </trkpt>
      <trkpt lat="43.83555" lon="0.40035">
        <ele>153</ele>
        <time>2011-09-17T09:25:19Z</time>
      </trkpt>
      <trkpt lat="43.83584" lon="0.4">
        <ele>152</ele>
        <time>2011-09-17T09:25:50Z</time>
      </trkpt>
      <trkpt lat="43.83611" lon="0.39967">
        <ele>153</ele>
        <time>2011-09-17T09:26:20Z</time>
      </trkpt>
      <trkpt lat="43.83634" lon="0.39919">
        <ele>153</ele>
        <time>2011-09-17T09:26:54Z</time>
      </trkpt>
      <trkpt lat="43.83631" lon="0.39913">
        <ele>153</ele>
        <time>2011-09-17T09:26:59Z</time>
      </trkpt>
      <trkpt lat="43.83611" lon="0.39883">
        <ele>153</ele>
        <time>2011-09-17T09:27:32Z</time>
      </trkpt>
      <trkpt lat="43.83588" lon="0.39842">
        <ele>152</ele>
        <time>2011-09-17T09:28:03Z</time>
      </trkpt>
      <trkpt lat="43.83588" lon="0.39835">
        <ele>151</ele>
        <time>2011-09-17T09:28:10Z</time>
      </trkpt>
      <trkpt lat="43.83584" lon="0.39836">
        <ele>150</ele>
        <time>2011-09-17T09:29:08Z</time>
      </trkpt>
      <trkpt lat="43.83582" lon="0.39829">
        <ele>149</ele>
        <time>2011-09-17T09:29:29Z</time>
      </trkpt>
      <trkpt lat="43.83578" lon="0.39823">
        <ele>148</ele>
        <time>2011-09-17T09:29:39Z</time>
      </trkpt>
      <trkpt lat="43.83576" lon="0.39818">
        <ele>148</ele>
        <time>2011-09-17T09:29:54Z</time>
      </trkpt>
      <trkpt lat="43.83572" lon="0.39813">
        <ele>147</ele>
        <time>2011-09-17T09:30:01Z</time>
      </trkpt>
      <trkpt lat="43.83556" lon="0.39783">
        <ele>145</ele>
        <time>2011-09-17T09:30:33Z</time>
      </trkpt>
      <trkpt lat="43.83534" lon="0.39735">
        <ele>144</ele>
        <time>2011-09-17T09:31:05Z</time>
      </trkpt>
      <trkpt lat="43.83522" lon="0.39718">
        <ele>143</ele>
        <time>2011-09-17T09:31:22Z</time>
      </trkpt>
      <trkpt lat="43.83521" lon="0.39715">
        <ele>143</ele>
        <time>2011-09-17T09:31:28Z</time>
      </trkpt>
      <trkpt lat="43.83505" lon="0.39677">
        <ele>141</ele>
        <time>2011-09-17T09:32:01Z</time>
      </trkpt>
      <trkpt lat="43.83487" lon="0.39624">
        <ele>139</ele>
        <time>2011-09-17T09:32:34Z</time>
      </trkpt>
      <trkpt lat="43.8348" lon="0.39605">
        <ele>138</ele>
        <time>2011-09-17T09:32:46Z</time>
      </trkpt>
      <trkpt lat="43.83481" lon="0.39598">
        <ele>138</ele>
        <time>2011-09-17T09:32:50Z</time>
      </trkpt>
      <trkpt lat="43.83484" lon="0.39593">
        <ele>138</ele>
        <time>2011-09-17T09:32:55Z</time>
      </trkpt>
      <trkpt lat="43.83518" lon="0.39553">
        <ele>135</ele>
        <time>2011-09-17T09:33:27Z</time>
      </trkpt>
      <trkpt lat="43.83522" lon="0.39549">
        <ele>135</ele>
        <time>2011-09-17T09:33:31Z</time>
      </trkpt>
      <trkpt lat="43.83527" lon="0.3955">
        <ele>134</ele>
        <time>2011-09-17T09:33:42Z</time>
      </trkpt>
      <trkpt lat="43.83554" lon="0.39523">
        <ele>132</ele>
        <time>2011-09-17T09:34:12Z</time>
      </trkpt>
      <trkpt lat="43.83589" lon="0.39499">
        <ele>131</ele>
        <time>2011-09-17T09:34:44Z</time>
      </trkpt>
      <trkpt lat="43.83623" lon="0.3947">
        <ele>129</ele>
        <time>2011-09-17T09:35:17Z</time>
      </trkpt>
      <trkpt lat="43.83658" lon="0.39441">
        <ele>128</ele>
        <time>2011-09-17T09:35:50Z</time>
      </trkpt>
      <trkpt lat="43.83674" lon="0.39422">
        <ele>127</ele>
        <time>2011-09-17T09:36:08Z</time>
      </trkpt>
      <trkpt lat="43.83669" lon="0.39385">
        <ele>126</ele>
        <time>2011-09-17T09:36:31Z</time>
      </trkpt>
      <trkpt lat="43.83673" lon="0.39381">
        <ele>126</ele>
        <time>2011-09-17T09:36:36Z</time>
      </trkpt>
      <trkpt lat="43.83705" lon="0.39358">
        <ele>125</ele>
        <time>2011-09-17T09:37:07Z</time>
      </trkpt>
      <trkpt lat="43.83738" lon="0.39344">
        <ele>123</ele>
        <time>2011-09-17T09:37:41Z</time>
      </trkpt>
      <trkpt lat="43.83776" lon="0.39315">
        <ele>121</ele>
        <time>2011-09-17T09:38:14Z</time>
      </trkpt>
      <trkpt lat="43.83817" lon="0.39287">
        <ele>120</ele>
        <time>2011-09-17T09:38:49Z</time>
      </trkpt>
      <trkpt lat="43.83855" lon="0.39272">
        <ele>119</ele>
        <time>2011-09-17T09:39:23Z</time>
      </trkpt>
      <trkpt lat="43.83899" lon="0.39279">
        <ele>119</ele>
        <time>2011-09-17T09:39:55Z</time>
      </trkpt>
      <trkpt lat="43.83936" lon="0.39294">
        <ele>119</ele>
        <time>2011-09-17T09:40:25Z</time>
      </trkpt>
      <trkpt lat="43.83949" lon="0.39295">
        <ele>119</ele>
        <time>2011-09-17T09:40:36Z</time>
      </trkpt>
      <trkpt lat="43.83973" lon="0.39275">
        <ele>118</ele>
        <time>2011-09-17T09:41:08Z</time>
      </trkpt>
      <trkpt lat="43.8401" lon="0.39244">
        <ele>117</ele>
        <time>2011-09-17T09:41:43Z</time>
      </trkpt>
      <trkpt lat="43.84053" lon="0.39239">
        <ele>116</ele>
        <time>2011-09-17T09:42:14Z</time>
      </trkpt>
      <trkpt lat="43.84087" lon="0.3924">
        <ele>115</ele>
        <time>2011-09-17T09:42:50Z</time>
      </trkpt>
      <trkpt lat="43.84092" lon="0.39241">
        <ele>115</ele>
        <time>2011-09-17T09:42:57Z</time>
      </trkpt>
      <trkpt lat="43.84104" lon="0.39235">
        <ele>114</ele>
        <time>2011-09-17T09:43:25Z</time>
      </trkpt>
      <trkpt lat="43.84123" lon="0.39232">
        <ele>115</ele>
        <time>2011-09-17T09:43:59Z</time>
      </trkpt>
      <trkpt lat="43.84153" lon="0.39222">
        <ele>115</ele>
        <time>2011-09-17T09:44:30Z</time>
      </trkpt>
      <trkpt lat="43.84191" lon="0.39212">
        <ele>116</ele>
        <time>2011-09-17T09:45:04Z</time>
      </trkpt>
      <trkpt lat="43.8423" lon="0.39199">
        <ele>116</ele>
        <time>2011-09-17T09:45:38Z</time>
      </trkpt>
      <trkpt lat="43.84261" lon="0.39189">
        <ele>116</ele>
        <time>2011-09-17T09:46:10Z</time>
      </trkpt>
      <trkpt lat="43.84292" lon="0.39179">
        <ele>116</ele>
        <time>2011-09-17T09:46:41Z</time>
      </trkpt>
      <trkpt lat="43.8433" lon="0.39169">
        <ele>117</ele>
        <time>2011-09-17T09:47:13Z</time>
      </trkpt>
      <trkpt lat="43.84363" lon="0.39149">
        <ele>119</ele>
        <time>2011-09-17T09:47:45Z</time>
      </trkpt>
      <trkpt lat="43.84399" lon="0.39117">
        <ele>121</ele>
        <time>2011-09-17T09:48:17Z</time>
      </trkpt>
      <trkpt lat="43.84439" lon="0.39092">
        <ele>120</ele>
        <time>2011-09-17T09:48:49Z</time>
      </trkpt>
      <trkpt lat="43.84481" lon="0.39099">
        <ele>120</ele>
        <time>2011-09-17T09:49:19Z</time>
      </trkpt>
      <trkpt lat="43.84518" lon="0.39142">
        <ele>120</ele>
        <time>2011-09-17T09:49:53Z</time>
      </trkpt>
      <trkpt lat="43.84548" lon="0.39185">
        <ele>120</ele>
        <time>2011-09-17T09:50:25Z</time>
      </trkpt>
      <trkpt lat="43.84558" lon="0.39204">
        <ele>119</ele>
        <time>2011-09-17T09:50:38Z</time>
      </trkpt>
      <trkpt lat="43.84563" lon="0.39206">
        <ele>119</ele>
        <time>2011-09-17T09:50:42Z</time>
      </trkpt>
      <trkpt lat="43.84601" lon="0.39185">
        <ele>118</ele>
        <time>2011-09-17T09:51:15Z</time>
      </trkpt>
      <trkpt lat="43.84626" lon="0.39176">
        <ele>117</ele>
        <time>2011-09-17T09:51:35Z</time>
      </trkpt>
      <trkpt lat="43.84631" lon="0.39179">
        <ele>117</ele>
        <time>2011-09-17T09:51:39Z</time>
      </trkpt>
      <trkpt lat="43.84644" lon="0.3921">
        <ele>116</ele>
        <time>2011-09-17T09:52:00Z</time>
      </trkpt>
      <trkpt lat="43.84649" lon="0.39212">
        <ele>116</ele>
        <time>2011-09-17T09:52:05Z</time>
      </trkpt>
      <trkpt lat="43.84695" lon="0.39209">
        <ele>115</ele>
        <time>2011-09-17T09:52:39Z</time>
      </trkpt>
      <trkpt lat="43.84734" lon="0.39205">
        <ele>115</ele>
        <time>2011-09-17T09:53:09Z</time>
      </trkpt>
      <trkpt lat="43.8478" lon="0.39206">
        <ele>115</ele>
        <time>2011-09-17T09:53:45Z</time>
      </trkpt>
      <trkpt lat="43.84822" lon="0.39209">
        <ele>114</ele>
        <time>2011-09-17T09:54:18Z</time>
      </trkpt>
      <trkpt lat="43.84846" lon="0.39228">
        <ele>113</ele>
        <time>2011-09-17T09:54:50Z</time>
      </trkpt>
      <trkpt lat="43.84869" lon="0.3924">
        <ele>112</ele>
        <time>2011-09-17T09:55:15Z</time>
      </trkpt>
      <trkpt lat="43.849" lon="0.39246">
        <ele>113</ele>
        <time>2011-09-17T09:55:47Z</time>
      </trkpt>
      <trkpt lat="43.84943" lon="0.39254">
        <ele>115</ele>
        <time>2011-09-17T09:56:19Z</time>
      </trkpt>
      <trkpt lat="43.84983" lon="0.39257">
        <ele>117</ele>
        <time>2011-09-17T09:56:49Z</time>
      </trkpt>
      <trkpt lat="43.85019" lon="0.39261">
        <ele>119</ele>
        <time>2011-09-17T09:57:19Z</time>
      </trkpt>
      <trkpt lat="43.85061" lon="0.39265">
        <ele>121</ele>
        <time>2011-09-17T09:57:54Z</time>
      </trkpt>
      <trkpt lat="43.85102" lon="0.39266">
        <ele>123</ele>
        <time>2011-09-17T09:58:25Z</time>
      </trkpt>
      <trkpt lat="43.85144" lon="0.39262">
        <ele>125</ele>
        <time>2011-09-17T09:58:58Z</time>
      </trkpt>
      <trkpt lat="43.85188" lon="0.39262">
        <ele>126</ele>
        <time>2011-09-17T09:59:30Z</time>
      </trkpt>
      <trkpt lat="43.85229" lon="0.39266">
        <ele>126</ele>
        <time>2011-09-17T10:00:02Z</time>
      </trkpt>
      <trkpt lat="43.85257" lon="0.39284">
        <ele>126</ele>
        <time>2011-09-17T10:00:33Z</time>
      </trkpt>
      <trkpt lat="43.85287" lon="0.39292">
        <ele>125</ele>
        <time>2011-09-17T10:01:06Z</time>
      </trkpt>
      <trkpt lat="43.85318" lon="0.39297">
        <ele>125</ele>
        <time>2011-09-17T10:01:39Z</time>
      </trkpt>
      <trkpt lat="43.85321" lon="0.39303">
        <ele>125</ele>
        <time>2011-09-17T10:01:44Z</time>
      </trkpt>
      <trkpt lat="43.85319" lon="0.39342">
        <ele>125</ele>
        <time>2011-09-17T10:02:07Z</time>
      </trkpt>
      <trkpt lat="43.85312" lon="0.39355">
        <ele>125</ele>
        <time>2011-09-17T10:02:19Z</time>
      </trkpt>
      <trkpt lat="43.85295" lon="0.39369">
        <ele>125</ele>
        <time>2011-09-17T10:02:42Z</time>
      </trkpt>
      <trkpt lat="43.85286" lon="0.39405">
        <ele>126</ele>
        <time>2011-09-17T10:03:14Z</time>
      </trkpt>
      <trkpt lat="43.8528" lon="0.39449">
        <ele>128</ele>
        <time>2011-09-17T10:03:46Z</time>
      </trkpt>
      <trkpt lat="43.8528" lon="0.39508">
        <ele>130</ele>
        <time>2011-09-17T10:04:19Z</time>
      </trkpt>
      <trkpt lat="43.85285" lon="0.39566">
        <ele>132</ele>
        <time>2011-09-17T10:04:52Z</time>
      </trkpt>
      <trkpt lat="43.85289" lon="0.39626">
        <ele>134</ele>
        <time>2011-09-17T10:05:24Z</time>
      </trkpt>
      <trkpt lat="43.85288" lon="0.3968">
        <ele>135</ele>
        <time>2011-09-17T10:05:58Z</time>
      </trkpt>
      <trkpt lat="43.85288" lon="0.39741">
        <ele>137</ele>
        <time>2011-09-17T10:06:32Z</time>
      </trkpt>
      <trkpt lat="43.85289" lon="0.39793">
        <ele>140</ele>
        <time>2011-09-17T10:07:03Z</time>
      </trkpt>
      <trkpt lat="43.85284" lon="0.39852">
        <ele>143</ele>
        <time>2011-09-17T10:07:35Z</time>
      </trkpt>
      <trkpt lat="43.85278" lon="0.39914">
        <ele>144</ele>
        <time>2011-09-17T10:08:07Z</time>
      </trkpt>
      <trkpt lat="43.85269" lon="0.39972">
        <ele>144</ele>
        <time>2011-09-17T10:08:40Z</time>
      </trkpt>
      <trkpt lat="43.85259" lon="0.40029">
        <ele>144</ele>
        <time>2011-09-17T10:09:13Z</time>
      </trkpt>
      <trkpt lat="43.85255" lon="0.40042">
        <ele>143</ele>
        <time>2011-09-17T10:09:22Z</time>
      </trkpt>
      <trkpt lat="43.85255" lon="0.40049">
        <ele>143</ele>
        <time>2011-09-17T10:09:29Z</time>
      </trkpt>
      <trkpt lat="43.85259" lon="0.40054">
        <ele>143</ele>
        <time>2011-09-17T10:09:37Z</time>
      </trkpt>
      <trkpt lat="43.85263" lon="0.40057">
        <ele>143</ele>
        <time>2011-09-17T10:09:43Z</time>
      </trkpt>
      <trkpt lat="43.85268" lon="0.40063">
        <ele>142</ele>
        <time>2011-09-17T10:10:14Z</time>
      </trkpt>
      <trkpt lat="43.853" lon="0.40081">
        <ele>139</ele>
        <time>2011-09-17T10:10:44Z</time>
      </trkpt>
      <trkpt lat="43.85339" lon="0.40105">
        <ele>137</ele>
        <time>2011-09-17T10:11:16Z</time>
      </trkpt>
      <trkpt lat="43.85354" lon="0.40113">
        <ele>136</ele>
        <time>2011-09-17T10:11:31Z</time>
      </trkpt>
      <trkpt lat="43.85378" lon="0.40136">
        <ele>134</ele>
        <time>2011-09-17T10:12:00Z</time>
      </trkpt>
      <trkpt lat="43.85393" lon="0.40134">
        <ele>134</ele>
        <time>2011-09-17T10:12:08Z</time>
      </trkpt>
      <trkpt lat="43.85413" lon="0.4011">
        <ele>133</ele>
        <time>2011-09-17T10:12:28Z</time>
      </trkpt>
      <trkpt lat="43.85421" lon="0.40092">
        <ele>133</ele>
        <time>2011-09-17T10:12:41Z</time>
      </trkpt>
      <trkpt lat="43.85426" lon="0.40088">
        <ele>132</ele>
        <time>2011-09-17T10:12:46Z</time>
      </trkpt>
      <trkpt lat="43.8544" lon="0.4009">
        <ele>132</ele>
        <time>2011-09-17T10:13:04Z</time>
      </trkpt>
      <trkpt lat="43.85449" lon="0.40094">
        <ele>132</ele>
        <time>2011-09-17T10:13:15Z</time>
      </trkpt>
      <trkpt lat="43.85459" lon="0.40109">
        <ele>132</ele>
        <time>2011-09-17T10:13:25Z</time>
      </trkpt>
      <trkpt lat="43.85458" lon="0.40134">
        <ele>132</ele>
        <time>2011-09-17T10:13:40Z</time>
      </trkpt>
      <trkpt lat="43.8546" lon="0.4014">
        <ele>132</ele>
        <time>2011-09-17T10:13:46Z</time>
      </trkpt>
      <trkpt lat="43.85476" lon="0.40166">
        <ele>133</ele>
        <time>2011-09-17T10:14:07Z</time>
      </trkpt>
      <trkpt lat="43.85485" lon="0.40163">
        <ele>133</ele>
        <time>2011-09-17T10:14:17Z</time>
      </trkpt>
      <trkpt lat="43.85493" lon="0.40156">
        <ele>133</ele>
        <time>2011-09-17T10:14:24Z</time>
      </trkpt>
      <trkpt lat="43.85494" lon="0.40142">
        <ele>133</ele>
        <time>2011-09-17T10:14:34Z</time>
      </trkpt>
      <trkpt lat="43.85494" lon="0.40127">
        <ele>133</ele>
        <time>2011-09-17T10:14:43Z</time>
      </trkpt>
      <trkpt lat="43.85513" lon="0.40087">
        <ele>132</ele>
        <time>2011-09-17T10:15:09Z</time>
      </trkpt>
      <trkpt lat="43.85538" lon="0.40042">
        <ele>132</ele>
        <time>2011-09-17T10:15:42Z</time>
      </trkpt>
      <trkpt lat="43.85562" lon="0.4">
        <ele>131</ele>
        <time>2011-09-17T10:16:17Z</time>
      </trkpt>
      <trkpt lat="43.8559" lon="0.39968">
        <ele>132</ele>
        <time>2011-09-17T10:16:52Z</time>
      </trkpt>
      <trkpt lat="43.8563" lon="0.39939">
        <ele>132</ele>
        <time>2011-09-17T10:17:24Z</time>
      </trkpt>
      <trkpt lat="43.85662" lon="0.39915">
        <ele>131</ele>
        <time>2011-09-17T10:17:51Z</time>
      </trkpt>
      <trkpt lat="43.85698" lon="0.39925">
        <ele>130</ele>
        <time>2011-09-17T10:18:23Z</time>
      </trkpt>
      <trkpt lat="43.85734" lon="0.39945">
        <ele>128</ele>
        <time>2011-09-17T10:18:54Z</time>
      </trkpt>
      <trkpt lat="43.85788" lon="0.39958">
        <ele>127</ele>
        <time>2011-09-17T10:19:31Z</time>
      </trkpt>
      <trkpt lat="43.85795" lon="0.39958">
        <ele>127</ele>
        <time>2011-09-17T10:19:39Z</time>
      </trkpt>
      <trkpt lat="43.858" lon="0.39954">
        <ele>127</ele>
        <time>2011-09-17T10:19:43Z</time>
      </trkpt>
      <trkpt lat="43.85806" lon="0.39936">
        <ele>126</ele>
        <time>2011-09-17T10:19:57Z</time>
      </trkpt>
      <trkpt lat="43.85814" lon="0.39882">
        <ele>125</ele>
        <time>2011-09-17T10:20:31Z</time>
      </trkpt>
      <trkpt lat="43.8582" lon="0.39831">
        <ele>124</ele>
        <time>2011-09-17T10:21:03Z</time>
      </trkpt>
      <trkpt lat="43.85825" lon="0.3978">
        <ele>125</ele>
        <time>2011-09-17T10:21:34Z</time>
      </trkpt>
      <trkpt lat="43.85832" lon="0.39729">
        <ele>125</ele>
        <time>2011-09-17T10:22:06Z</time>
      </trkpt>
      <trkpt lat="43.8584" lon="0.3968">
        <ele>126</ele>
        <time>2011-09-17T10:22:37Z</time>
      </trkpt>
      <trkpt lat="43.85844" lon="0.39622">
        <ele>126</ele>
        <time>2011-09-17T10:23:13Z</time>
      </trkpt>
      <trkpt lat="43.85847" lon="0.3957">
        <ele>126</ele>
        <time>2011-09-17T10:23:44Z</time>
      </trkpt>
      <trkpt lat="43.85849" lon="0.39563">
        <ele>126</ele>
        <time>2011-09-17T10:23:49Z</time>
      </trkpt>
      <trkpt lat="43.85854" lon="0.3956">
        <ele>127</ele>
        <time>2011-09-17T10:23:55Z</time>
      </trkpt>
      <trkpt lat="43.85863" lon="0.39561">
        <ele>129</ele>
        <time>2011-09-17T10:24:33Z</time>
      </trkpt>
      <trkpt lat="43.85886" lon="0.39574">
        <ele>134</ele>
        <time>2011-09-17T10:25:04Z</time>
      </trkpt>
      <trkpt lat="43.85891" lon="0.39572">
        <ele>137</ele>
        <time>2011-09-17T10:26:17Z</time>
      </trkpt>
      <trkpt lat="43.85898" lon="0.39577">
        <ele>137</ele>
        <time>2011-09-17T10:26:40Z</time>
      </trkpt>
      <trkpt lat="43.85929" lon="0.39587">
        <ele>137</ele>
        <time>2011-09-17T10:27:12Z</time>
      </trkpt>
      <trkpt lat="43.85964" lon="0.39597">
        <ele>138</ele>
        <time>2011-09-17T10:27:46Z</time>
      </trkpt>
      <trkpt lat="43.85995" lon="0.3961">
        <ele>139</ele>
        <time>2011-09-17T10:28:16Z</time>
      </trkpt>
      <trkpt lat="43.86024" lon="0.3962">
        <ele>140</ele>
        <time>2011-09-17T10:28:46Z</time>
      </trkpt>
      <trkpt lat="43.86055" lon="0.39631">
        <ele>141</ele>
        <time>2011-09-17T10:29:20Z</time>
      </trkpt>
      <trkpt lat="43.86089" lon="0.3964">
        <ele>142</ele>
        <time>2011-09-17T10:29:53Z</time>
      </trkpt>
      <trkpt lat="43.86103" lon="0.39647">
        <ele>143</ele>
        <time>2011-09-17T10:30:06Z</time>
      </trkpt>
      <trkpt lat="43.86119" lon="0.3964">
        <ele>144</ele>
        <time>2011-09-17T10:30:21Z</time>
      </trkpt>
      <trkpt lat="43.86127" lon="0.3963">
        <ele>145</ele>
        <time>2011-09-17T10:30:30Z</time>
      </trkpt>
      <trkpt lat="43.86129" lon="0.39623">
        <ele>145</ele>
        <time>2011-09-17T10:30:35Z</time>
      </trkpt>
      <trkpt lat="43.86129" lon="0.39616">
        <ele>145</ele>
        <time>2011-09-17T10:30:40Z</time>
      </trkpt>
      <trkpt lat="43.86122" lon="0.39589">
        <ele>147</ele>
        <time>2011-09-17T10:31:02Z</time>
      </trkpt>
      <trkpt lat="43.86129" lon="0.39565">
        <ele>148</ele>
        <time>2011-09-17T10:31:18Z</time>
      </trkpt>
      <trkpt lat="43.86155" lon="0.39535">
        <ele>149</ele>
        <time>2011-09-17T10:31:51Z</time>
      </trkpt>
      <trkpt lat="43.86191" lon="0.39494">
        <ele>151</ele>
        <time>2011-09-17T10:32:28Z</time>
      </trkpt>
      <trkpt lat="43.86224" lon="0.39463">
        <ele>155</ele>
        <time>2011-09-17T10:33:01Z</time>
      </trkpt>
      <trkpt lat="43.86257" lon="0.39429">
        <ele>157</ele>
        <time>2011-09-17T10:33:34Z</time>
      </trkpt>
      <trkpt lat="43.86275" lon="0.39384">
        <ele>157</ele>
        <time>2011-09-17T10:34:05Z</time>
      </trkpt>
      <trkpt lat="43.86298" lon="0.39333">
        <ele>157</ele>
        <time>2011-09-17T10:34:37Z</time>
      </trkpt>
      <trkpt lat="43.86308" lon="0.39317">
        <ele>156</ele>
        <time>2011-09-17T10:34:51Z</time>
      </trkpt>
      <trkpt lat="43.86323" lon="0.39317">
        <ele>156</ele>
        <time>2011-09-17T10:35:04Z</time>
      </trkpt>
      <trkpt lat="43.86325" lon="0.3931">
        <ele>156</ele>
        <time>2011-09-17T10:35:19Z</time>
      </trkpt>
      <trkpt lat="43.86335" lon="0.39286">
        <ele>157</ele>
        <time>2011-09-17T10:35:55Z</time>
      </trkpt>
      <trkpt lat="43.86336" lon="0.39278">
        <ele>157</ele>
        <time>2011-09-17T10:36:00Z</time>
      </trkpt>
      <trkpt lat="43.86337" lon="0.39274">
        <ele>157</ele>
        <time>2011-09-17T10:36:18Z</time>
      </trkpt>
      <trkpt lat="43.8635" lon="0.39234">
        <ele>157</ele>
        <time>2011-09-17T10:36:52Z</time>
      </trkpt>
      <trkpt lat="43.86364" lon="0.39186">
        <ele>157</ele>
        <time>2011-09-17T10:37:24Z</time>
      </trkpt>
      <trkpt lat="43.8638" lon="0.39139">
        <ele>159</ele>
        <time>2011-09-17T10:37:59Z</time>
      </trkpt>
      <trkpt lat="43.86385" lon="0.39127">
        <ele>159</ele>
        <time>2011-09-17T10:38:10Z</time>
      </trkpt>
      <trkpt lat="43.86408" lon="0.39081">
        <ele>159</ele>
        <time>2011-09-17T10:38:43Z</time>
      </trkpt>
      <trkpt lat="43.86432" lon="0.39027">
        <ele>158</ele>
        <time>2011-09-17T10:39:15Z</time>
      </trkpt>
      <trkpt lat="43.86454" lon="0.38979">
        <ele>157</ele>
        <time>2011-09-17T10:39:46Z</time>
      </trkpt>
      <trkpt lat="43.86478" lon="0.38928">
        <ele>156</ele>
        <time>2011-09-17T10:40:18Z</time>
      </trkpt>
      <trkpt lat="43.86506" lon="0.38881">
        <ele>154</ele>
        <time>2011-09-17T10:40:51Z</time>
      </trkpt>
      <trkpt lat="43.86531" lon="0.38835">
        <ele>149</ele>
        <time>2011-09-17T10:41:23Z</time>
      </trkpt>
      <trkpt lat="43.86543" lon="0.38775">
        <ele>145</ele>
        <time>2011-09-17T10:41:56Z</time>
      </trkpt>
      <trkpt lat="43.86549" lon="0.38724">
        <ele>142</ele>
        <time>2011-09-17T10:42:29Z</time>
      </trkpt>
      <trkpt lat="43.86538" lon="0.38676">
        <ele>140</ele>
        <time>2011-09-17T10:42:57Z</time>
      </trkpt>
      <trkpt lat="43.86529" lon="0.38658">
        <ele>139</ele>
        <time>2011-09-17T10:43:09Z</time>
      </trkpt>
      <trkpt lat="43.86524" lon="0.38595">
        <ele>135</ele>
        <time>2011-09-17T10:43:43Z</time>
      </trkpt>
      <trkpt lat="43.86522" lon="0.38544">
        <ele>133</ele>
        <time>2011-09-17T10:44:16Z</time>
      </trkpt>
      <trkpt lat="43.86506" lon="0.38492">
        <ele>130</ele>
        <time>2011-09-17T10:44:47Z</time>
      </trkpt>
      <trkpt lat="43.86508" lon="0.38484">
        <ele>129</ele>
        <time>2011-09-17T10:44:51Z</time>
      </trkpt>
      <trkpt lat="43.8652" lon="0.38471">
        <ele>128</ele>
        <time>2011-09-17T10:45:03Z</time>
      </trkpt>
      <trkpt lat="43.86559" lon="0.38455">
        <ele>125</ele>
        <time>2011-09-17T10:45:36Z</time>
      </trkpt>
      <trkpt lat="43.86563" lon="0.38453">
        <ele>123</ele>
        <time>2011-09-17T10:46:52Z</time>
      </trkpt>
      <trkpt lat="43.86568" lon="0.3845">
        <ele>122</ele>
        <time>2011-09-17T10:46:56Z</time>
      </trkpt>
      <trkpt lat="43.86609" lon="0.38437">
        <ele>121</ele>
        <time>2011-09-17T10:47:28Z</time>
      </trkpt>
      <trkpt lat="43.86651" lon="0.38445">
        <ele>120</ele>
        <time>2011-09-17T10:48:00Z</time>
      </trkpt>
      <trkpt lat="43.8669" lon="0.38462">
        <ele>120</ele>
        <time>2011-09-17T10:48:32Z</time>
      </trkpt>
      <trkpt lat="43.8673" lon="0.38483">
        <ele>119</ele>
        <time>2011-09-17T10:49:04Z</time>
      </trkpt>
      <trkpt lat="43.8677" lon="0.38493">
        <ele>117</ele>
        <time>2011-09-17T10:49:35Z</time>
      </trkpt>
      <trkpt lat="43.86813" lon="0.38503">
        <ele>116</ele>
        <time>2011-09-17T10:50:05Z</time>
      </trkpt>
      <trkpt lat="43.86856" lon="0.38515">
        <ele>116</ele>
        <time>2011-09-17T10:50:38Z</time>
      </trkpt>
      <trkpt lat="43.86902" lon="0.38521">
        <ele>116</ele>
        <time>2011-09-17T10:51:11Z</time>
      </trkpt>
      <trkpt lat="43.86942" lon="0.38528">
        <ele>116</ele>
        <time>2011-09-17T10:51:43Z</time>
      </trkpt>
      <trkpt lat="43.86982" lon="0.38526">
        <ele>116</ele>
        <time>2011-09-17T10:52:14Z</time>
      </trkpt>
      <trkpt lat="43.87026" lon="0.3852">
        <ele>115</ele>
        <time>2011-09-17T10:52:45Z</time>
      </trkpt>
      <trkpt lat="43.87069" lon="0.3852">
        <ele>114</ele>
        <time>2011-09-17T10:53:17Z</time>
      </trkpt>
      <trkpt lat="43.87115" lon="0.38526">
        <ele>112</ele>
        <time>2011-09-17T10:53:51Z</time>
      </trkpt>
      <trkpt lat="43.87155" lon="0.3853">
        <ele>111</ele>
        <time>2011-09-17T10:54:21Z</time>
      </trkpt>
      <trkpt lat="43.87197" lon="0.38538">
        <ele>111</ele>
        <time>2011-09-17T10:54:52Z</time>
      </trkpt>
      <trkpt lat="43.87237" lon="0.38549">
        <ele>110</ele>
        <time>2011-09-17T10:55:23Z</time>
      </trkpt>
      <trkpt lat="43.87276" lon="0.38559">
        <ele>109</ele>
        <time>2011-09-17T10:55:55Z</time>
      </trkpt>
      <trkpt lat="43.87287" lon="0.38562">
        <ele>109</ele>
        <time>2011-09-17T10:56:03Z</time>
      </trkpt>
      <trkpt lat="43.87294" lon="0.38555">
        <ele>108</ele>
        <time>2011-09-17T10:56:11Z</time>
      </trkpt>
      <trkpt lat="43.8731" lon="0.38507">
        <ele>106</ele>
        <time>2011-09-17T10:56:41Z</time>
      </trkpt>
      <trkpt lat="43.87316" lon="0.38489">
        <ele>105</ele>
        <time>2011-09-17T10:56:52Z</time>
      </trkpt>
      <trkpt lat="43.87324" lon="0.38486">
        <ele>105</ele>
        <time>2011-09-17T10:56:58Z</time>
      </trkpt>
      <trkpt lat="43.87353" lon="0.38501">
        <ele>103</ele>
        <time>2011-09-17T10:57:21Z</time>
      </trkpt>
      <trkpt lat="43.8738" lon="0.38544">
        <ele>103</ele>
        <time>2011-09-17T10:57:54Z</time>
      </trkpt>
      <trkpt lat="43.87409" lon="0.38572">
        <ele>102</ele>
        <time>2011-09-17T10:58:24Z</time>
      </trkpt>
      <trkpt lat="43.87433" lon="0.38598">
        <ele>101</ele>
        <time>2011-09-17T10:58:54Z</time>
      </trkpt>
      <trkpt lat="43.8747" lon="0.38626">
        <ele>98</ele>
        <time>2011-09-17T10:59:28Z</time>
      </trkpt>
      <trkpt lat="43.87508" lon="0.3864">
        <ele>96</ele>
        <time>2011-09-17T11:00:02Z</time>
      </trkpt>
      <trkpt lat="43.87552" lon="0.38643">
        <ele>95</ele>
        <time>2011-09-17T11:00:35Z</time>
      </trkpt>
      <trkpt lat="43.87599" lon="0.38646">
        <ele>93</ele>
        <time>2011-09-17T11:01:06Z</time>
      </trkpt>
      <trkpt lat="43.87647" lon="0.38624">
        <ele>92</ele>
        <time>2011-09-17T11:01:44Z</time>
      </trkpt>
      <trkpt lat="43.87689" lon="0.38587">
        <ele>91</ele>
        <time>2011-09-17T11:02:15Z</time>
      </trkpt>
      <trkpt lat="43.87724" lon="0.38567">
        <ele>90</ele>
        <time>2011-09-17T11:02:49Z</time>
      </trkpt>
      <trkpt lat="43.87776" lon="0.38549">
        <ele>89</ele>
        <time>2011-09-17T11:03:22Z</time>
      </trkpt>
      <trkpt lat="43.87805" lon="0.38537">
        <ele>90</ele>
        <time>2011-09-17T11:03:45Z</time>
      </trkpt>
      <trkpt lat="43.87809" lon="0.3853">
        <ele>90</ele>
        <time>2011-09-17T11:04:09Z</time>
      </trkpt>
      <trkpt lat="43.8782" lon="0.38523">
        <ele>90</ele>
        <time>2011-09-17T11:04:21Z</time>
      </trkpt>
      <trkpt lat="43.87826" lon="0.38523">
        <ele>90</ele>
        <time>2011-09-17T11:04:26Z</time>
      </trkpt>
      <trkpt lat="43.87851" lon="0.38499">
        <ele>90</ele>
        <time>2011-09-17T11:04:55Z</time>
      </trkpt>
      <trkpt lat="43.87869" lon="0.38454">
        <ele>89</ele>
        <time>2011-09-17T11:05:28Z</time>
      </trkpt>
      <trkpt lat="43.8788" lon="0.38392">
        <ele>89</ele>
        <time>2011-09-17T11:05:56Z</time>
      </trkpt>
      <trkpt lat="43.87895" lon="0.38375">
        <ele>89</ele>
        <time>2011-09-17T11:06:15Z</time>
      </trkpt>
      <trkpt lat="43.87914" lon="0.38326">
        <ele>88</ele>
        <time>2011-09-17T11:06:47Z</time>
      </trkpt>
      <trkpt lat="43.87934" lon="0.38263">
        <ele>88</ele>
        <time>2011-09-17T11:07:19Z</time>
      </trkpt>
      <trkpt lat="43.87951" lon="0.38197">
        <ele>88</ele>
        <time>2011-09-17T11:07:52Z</time>
      </trkpt>
      <trkpt lat="43.87977" lon="0.38131">
        <ele>85</ele>
        <time>2011-09-17T11:08:25Z</time>
      </trkpt>
      <trkpt lat="43.87999" lon="0.3808">
        <ele>82</ele>
        <time>2011-09-17T11:08:57Z</time>
      </trkpt>
      <trkpt lat="43.88024" lon="0.38039">
        <ele>80</ele>
        <time>2011-09-17T11:09:30Z</time>
      </trkpt>
      <trkpt lat="43.88038" lon="0.37988">
        <ele>78</ele>
        <time>2011-09-17T11:10:01Z</time>
      </trkpt>
      <trkpt lat="43.88045" lon="0.37978">
        <ele>78</ele>
        <time>2011-09-17T11:10:08Z</time>
      </trkpt>
      <trkpt lat="43.88045" lon="0.37963">
        <ele>76</ele>
        <time>2011-09-17T11:10:28Z</time>
      </trkpt>
      <trkpt lat="43.8805" lon="0.37959">
        <ele>76</ele>
        <time>2011-09-17T11:10:32Z</time>
      </trkpt>
      <trkpt lat="43.88068" lon="0.37947">
        <ele>75</ele>
        <time>2011-09-17T11:10:47Z</time>
      </trkpt>
      <trkpt lat="43.88073" lon="0.37947">
        <ele>74</ele>
        <time>2011-09-17T11:11:04Z</time>
      </trkpt>
      <trkpt lat="43.88087" lon="0.37942">
        <ele>74</ele>
        <time>2011-09-17T11:11:36Z</time>
      </trkpt>
      <trkpt lat="43.88121" lon="0.37955">
        <ele>75</ele>
        <time>2011-09-17T11:12:14Z</time>
      </trkpt>
      <trkpt lat="43.88111" lon="0.37941">
        <ele>75</ele>
        <time>2011-09-17T11:12:32Z</time>
      </trkpt>
      <trkpt lat="43.88067" lon="0.37955">
        <ele>86</ele>
        <time>2011-09-17T12:07:59Z</time>
      </trkpt>
      <trkpt lat="43.88064" lon="0.3796">
        <ele>86</ele>
        <time>2011-09-17T12:08:02Z</time>
      </trkpt>
      <trkpt lat="43.8806" lon="0.37965">
        <ele>87</ele>
        <time>2011-09-17T12:08:06Z</time>
      </trkpt>
      <trkpt lat="43.88052" lon="0.38003">
        <ele>87</ele>
        <time>2011-09-17T12:08:37Z</time>
      </trkpt>
      <trkpt lat="43.88048" lon="0.38007">
        <ele>86</ele>
        <time>2011-09-17T12:08:49Z</time>
      </trkpt>
      <trkpt lat="43.88038" lon="0.38031">
        <ele>86</ele>
        <time>2011-09-17T12:09:11Z</time>
      </trkpt>
      <trkpt lat="43.88036" lon="0.38045">
        <ele>85</ele>
        <time>2011-09-17T12:09:25Z</time>
      </trkpt>
      <trkpt lat="43.88042" lon="0.38058">
        <ele>84</ele>
        <time>2011-09-17T12:09:39Z</time>
      </trkpt>
      <trkpt lat="43.88048" lon="0.38069">
        <ele>84</ele>
        <time>2011-09-17T12:09:50Z</time>
      </trkpt>
      <trkpt lat="43.8807" lon="0.38083">
        <ele>84</ele>
        <time>2011-09-17T12:10:22Z</time>
      </trkpt>
      <trkpt lat="43.88089" lon="0.38114">
        <ele>85</ele>
        <time>2011-09-17T12:10:55Z</time>
      </trkpt>
      <trkpt lat="43.8809" lon="0.38142">
        <ele>85</ele>
        <time>2011-09-17T12:11:27Z</time>
      </trkpt>
      <trkpt lat="43.88096" lon="0.38153">
        <ele>85</ele>
        <time>2011-09-17T12:11:41Z</time>
      </trkpt>
      <trkpt lat="43.88101" lon="0.3815">
        <ele>85</ele>
        <time>2011-09-17T12:11:54Z</time>
      </trkpt>
      <trkpt lat="43.88119" lon="0.38132">
        <ele>85</ele>
        <time>2011-09-17T12:12:31Z</time>
      </trkpt>
      <trkpt lat="43.88125" lon="0.38119">
        <ele>85</ele>
        <time>2011-09-17T12:13:11Z</time>
      </trkpt>
      <trkpt lat="43.88151" lon="0.38112">
        <ele>85</ele>
        <time>2011-09-17T12:13:41Z</time>
      </trkpt>
      <trkpt lat="43.88164" lon="0.38088">
        <ele>84</ele>
        <time>2011-09-17T12:14:10Z</time>
      </trkpt>
      <trkpt lat="43.88168" lon="0.38076">
        <ele>84</ele>
        <time>2011-09-17T12:14:23Z</time>
      </trkpt>
      <trkpt lat="43.88177" lon="0.38078">
        <ele>83</ele>
        <time>2011-09-17T12:14:36Z</time>
      </trkpt>
      <trkpt lat="43.88187" lon="0.38077">
        <ele>83</ele>
        <time>2011-09-17T12:14:43Z</time>
      </trkpt>
      <trkpt lat="43.8822" lon="0.38095">
        <ele>83</ele>
        <time>2011-09-17T12:15:19Z</time>
      </trkpt>
      <trkpt lat="43.88229" lon="0.38095">
        <ele>83</ele>
        <time>2011-09-17T12:15:28Z</time>
      </trkpt>
      <trkpt lat="43.88233" lon="0.38093">
        <ele>83</ele>
        <time>2011-09-17T12:15:48Z</time>
      </trkpt>
      <trkpt lat="43.88239" lon="0.38098">
        <ele>84</ele>
        <time>2011-09-17T12:16:03Z</time>
      </trkpt>
      <trkpt lat="43.88236" lon="0.38094">
        <ele>86</ele>
        <time>2011-09-17T12:17:08Z</time>
      </trkpt>
      <trkpt lat="43.88234" lon="0.381">
        <ele>88</ele>
        <time>2011-09-17T12:17:23Z</time>
      </trkpt>
      <trkpt lat="43.88242" lon="0.38106">
        <ele>89</ele>
        <time>2011-09-17T12:17:37Z</time>
      </trkpt>
      <trkpt lat="43.88266" lon="0.38097">
        <ele>95</ele>
        <time>2011-09-17T12:18:08Z</time>
      </trkpt>
      <trkpt lat="43.8827" lon="0.38096">
        <ele>96</ele>
        <time>2011-09-17T12:18:18Z</time>
      </trkpt>
      <trkpt lat="43.88275" lon="0.38094">
        <ele>96</ele>
        <time>2011-09-17T12:18:34Z</time>
      </trkpt>
      <trkpt lat="43.88301" lon="0.38067">
        <ele>94</ele>
        <time>2011-09-17T12:19:08Z</time>
      </trkpt>
      <trkpt lat="43.88321" lon="0.38034">
        <ele>94</ele>
        <time>2011-09-17T12:19:39Z</time>
      </trkpt>
      <trkpt lat="43.88335" lon="0.38001">
        <ele>94</ele>
        <time>2011-09-17T12:20:11Z</time>
      </trkpt>
      <trkpt lat="43.88334" lon="0.37988">
        <ele>94</ele>
        <time>2011-09-17T12:20:22Z</time>
      </trkpt>
      <trkpt lat="43.8832" lon="0.37954">
        <ele>95</ele>
        <time>2011-09-17T12:21:01Z</time>
      </trkpt>
      <trkpt lat="43.88318" lon="0.37937">
        <ele>95</ele>
        <time>2011-09-17T12:21:19Z</time>
      </trkpt>
      <trkpt lat="43.88328" lon="0.37914">
        <ele>96</ele>
        <time>2011-09-17T12:21:43Z</time>
      </trkpt>
      <trkpt lat="43.88334" lon="0.37904">
        <ele>96</ele>
        <time>2011-09-17T12:21:53Z</time>
      </trkpt>
      <trkpt lat="43.88348" lon="0.37853">
        <ele>99</ele>
        <time>2011-09-17T12:22:32Z</time>
      </trkpt>
      <trkpt lat="43.88352" lon="0.37835">
        <ele>101</ele>
        <time>2011-09-17T12:22:57Z</time>
      </trkpt>
      <trkpt lat="43.88368" lon="0.37799">
        <ele>102</ele>
        <time>2011-09-17T12:23:38Z</time>
      </trkpt>
      <trkpt lat="43.88371" lon="0.3776">
        <ele>102</ele>
        <time>2011-09-17T12:24:03Z</time>
      </trkpt>
      <trkpt lat="43.88375" lon="0.37754">
        <ele>102</ele>
        <time>2011-09-17T12:24:08Z</time>
      </trkpt>
      <trkpt lat="43.88381" lon="0.37755">
        <ele>102</ele>
        <time>2011-09-17T12:24:13Z</time>
      </trkpt>
      <trkpt lat="43.884" lon="0.37781">
        <ele>102</ele>
        <time>2011-09-17T12:24:38Z</time>
      </trkpt>
      <trkpt lat="43.88422" lon="0.37823">
        <ele>99</ele>
        <time>2011-09-17T12:25:12Z</time>
      </trkpt>
      <trkpt lat="43.88449" lon="0.3786">
        <ele>97</ele>
        <time>2011-09-17T12:25:49Z</time>
      </trkpt>
      <trkpt lat="43.8849" lon="0.37904">
        <ele>97</ele>
        <time>2011-09-17T12:26:21Z</time>
      </trkpt>
      <trkpt lat="43.88519" lon="0.37909">
        <ele>96</ele>
        <time>2011-09-17T12:26:45Z</time>
      </trkpt>
      <trkpt lat="43.88547" lon="0.37888">
        <ele>95</ele>
        <time>2011-09-17T12:27:16Z</time>
      </trkpt>
      <trkpt lat="43.88578" lon="0.37832">
        <ele>92</ele>
        <time>2011-09-17T12:27:55Z</time>
      </trkpt>
      <trkpt lat="43.88604" lon="0.37802">
        <ele>91</ele>
        <time>2011-09-17T12:28:29Z</time>
      </trkpt>
      <trkpt lat="43.88632" lon="0.37768">
        <ele>88</ele>
        <time>2011-09-17T12:29:00Z</time>
      </trkpt>
      <trkpt lat="43.88659" lon="0.37725">
        <ele>85</ele>
        <time>2011-09-17T12:29:31Z</time>
      </trkpt>
      <trkpt lat="43.88666" lon="0.37717">
        <ele>85</ele>
        <time>2011-09-17T12:29:59Z</time>
      </trkpt>
      <trkpt lat="43.8867" lon="0.37719">
        <ele>85</ele>
        <time>2011-09-17T12:30:20Z</time>
      </trkpt>
      <trkpt lat="43.8867" lon="0.37724">
        <ele>84</ele>
        <time>2011-09-17T12:31:28Z</time>
      </trkpt>
      <trkpt lat="43.88673" lon="0.37725">
        <ele>84</ele>
        <time>2011-09-17T12:32:24Z</time>
      </trkpt>
      <trkpt lat="43.88671" lon="0.3772">
        <ele>86</ele>
        <time>2011-09-17T12:34:52Z</time>
      </trkpt>
      <trkpt lat="43.88676" lon="0.37715">
        <ele>86</ele>
        <time>2011-09-17T12:35:04Z</time>
      </trkpt>
      <trkpt lat="43.88704" lon="0.37682">
        <ele>86</ele>
        <time>2011-09-17T12:35:37Z</time>
      </trkpt>
      <trkpt lat="43.88712" lon="0.37671">
        <ele>86</ele>
        <time>2011-09-17T12:35:46Z</time>
      </trkpt>
      <trkpt lat="43.88738" lon="0.37641">
        <ele>86</ele>
        <time>2011-09-17T12:36:16Z</time>
      </trkpt>
      <trkpt lat="43.88769" lon="0.37602">
        <ele>86</ele>
        <time>2011-09-17T12:36:49Z</time>
      </trkpt>
      <trkpt lat="43.88806" lon="0.37566">
        <ele>86</ele>
        <time>2011-09-17T12:37:22Z</time>
      </trkpt>
      <trkpt lat="43.8884" lon="0.3753">
        <ele>85</ele>
        <time>2011-09-17T12:37:56Z</time>
      </trkpt>
      <trkpt lat="43.88872" lon="0.375">
        <ele>84</ele>
        <time>2011-09-17T12:38:28Z</time>
      </trkpt>
      <trkpt lat="43.88903" lon="0.3747">
        <ele>82</ele>
        <time>2011-09-17T12:39:00Z</time>
      </trkpt>
      <trkpt lat="43.8894" lon="0.37439">
        <ele>81</ele>
        <time>2011-09-17T12:39:32Z</time>
      </trkpt>
      <trkpt lat="43.88971" lon="0.37396">
        <ele>84</ele>
        <time>2011-09-17T12:40:13Z</time>
      </trkpt>
      <trkpt lat="43.88975" lon="0.37385">
        <ele>85</ele>
        <time>2011-09-17T12:40:25Z</time>
      </trkpt>
      <trkpt lat="43.88976" lon="0.37371">
        <ele>84</ele>
        <time>2011-09-17T12:40:36Z</time>
      </trkpt>
      <trkpt lat="43.88958" lon="0.3732">
        <ele>84</ele>
        <time>2011-09-17T12:41:13Z</time>
      </trkpt>
      <trkpt lat="43.88961" lon="0.37318">
        <ele>85</ele>
        <time>2011-09-17T12:42:25Z</time>
      </trkpt>
      <trkpt lat="43.88961" lon="0.37321">
        <ele>85</ele>
        <time>2011-09-17T12:43:50Z</time>
      </trkpt>
      <trkpt lat="43.88965" lon="0.37323">
        <ele>85</ele>
        <time>2011-09-17T12:44:07Z</time>
      </trkpt>
      <trkpt lat="43.88973" lon="0.37316">
        <ele>85</ele>
        <time>2011-09-17T12:44:18Z</time>
      </trkpt>
      <trkpt lat="43.88982" lon="0.37311">
        <ele>87</ele>
        <time>2011-09-17T12:44:44Z</time>
      </trkpt>
      <trkpt lat="43.88979" lon="0.37306">
        <ele>87</ele>
        <time>2011-09-17T12:44:51Z</time>
      </trkpt>
      <trkpt lat="43.88974" lon="0.37305">
        <ele>92</ele>
        <time>2011-09-17T12:45:16Z</time>
      </trkpt>
      <trkpt lat="43.8897" lon="0.37309">
        <ele>92</ele>
        <time>2011-09-17T12:45:27Z</time>
      </trkpt>
      <trkpt lat="43.88966" lon="0.37309">
        <ele>92</ele>
        <time>2011-09-17T12:45:45Z</time>
      </trkpt>
      <trkpt lat="43.88962" lon="0.37317">
        <ele>91</ele>
        <time>2011-09-17T12:46:16Z</time>
      </trkpt>
      <trkpt lat="43.88965" lon="0.37322">
        <ele>91</ele>
        <time>2011-09-17T12:46:18Z</time>
      </trkpt>
      <trkpt lat="43.88972" lon="0.37366">
        <ele>87</ele>
        <time>2011-09-17T12:46:50Z</time>
      </trkpt>
      <trkpt lat="43.88976" lon="0.3738">
        <ele>86</ele>
        <time>2011-09-17T12:47:07Z</time>
      </trkpt>
      <trkpt lat="43.88974" lon="0.37387">
        <ele>85</ele>
        <time>2011-09-17T12:47:10Z</time>
      </trkpt>
      <trkpt lat="43.88943" lon="0.37435">
        <ele>84</ele>
        <time>2011-09-17T12:47:42Z</time>
      </trkpt>
      <trkpt lat="43.88917" lon="0.37464">
        <ele>85</ele>
        <time>2011-09-17T12:48:13Z</time>
      </trkpt>
      <trkpt lat="43.88887" lon="0.37497">
        <ele>85</ele>
        <time>2011-09-17T12:48:45Z</time>
      </trkpt>
      <trkpt lat="43.88853" lon="0.37531">
        <ele>83</ele>
        <time>2011-09-17T12:49:21Z</time>
      </trkpt>
      <trkpt lat="43.88852" lon="0.37538">
        <ele>82</ele>
        <time>2011-09-17T12:49:27Z</time>
      </trkpt>
      <trkpt lat="43.88852" lon="0.37543">
        <ele>82</ele>
        <time>2011-09-17T12:49:35Z</time>
      </trkpt>
      <trkpt lat="43.88848" lon="0.37545">
        <ele>82</ele>
        <time>2011-09-17T12:50:05Z</time>
      </trkpt>
      <trkpt lat="43.8885" lon="0.37548">
        <ele>82</ele>
        <time>2011-09-17T12:50:29Z</time>
      </trkpt>
      <trkpt lat="43.88854" lon="0.37552">
        <ele>82</ele>
        <time>2011-09-17T12:51:06Z</time>
      </trkpt>
      <trkpt lat="43.88874" lon="0.37588">
        <ele>82</ele>
        <time>2011-09-17T12:51:38Z</time>
      </trkpt>
      <trkpt lat="43.8889" lon="0.37631">
        <ele>82</ele>
        <time>2011-09-17T12:52:10Z</time>
      </trkpt>
      <trkpt lat="43.88908" lon="0.37674">
        <ele>82</ele>
        <time>2011-09-17T12:52:41Z</time>
      </trkpt>
      <trkpt lat="43.88926" lon="0.37717">
        <ele>82</ele>
        <time>2011-09-17T12:53:13Z</time>
      </trkpt>
      <trkpt lat="43.88943" lon="0.37762">
        <ele>83</ele>
        <time>2011-09-17T12:53:45Z</time>
      </trkpt>
      <trkpt lat="43.88963" lon="0.37804">
        <ele>82</ele>
        <time>2011-09-17T12:54:19Z</time>
      </trkpt>
      <trkpt lat="43.88993" lon="0.37804">
        <ele>82</ele>
        <time>2011-09-17T12:54:50Z</time>
      </trkpt>
      <trkpt lat="43.8903" lon="0.37804">
        <ele>80</ele>
        <time>2011-09-17T12:55:24Z</time>
      </trkpt>
      <trkpt lat="43.89067" lon="0.37802">
        <ele>79</ele>
        <time>2011-09-17T12:55:59Z</time>
      </trkpt>
      <trkpt lat="43.89082" lon="0.37809">
        <ele>78</ele>
        <time>2011-09-17T12:56:10Z</time>
      </trkpt>
      <trkpt lat="43.89088" lon="0.37817">
        <ele>78</ele>
        <time>2011-09-17T12:56:17Z</time>
      </trkpt>
      <trkpt lat="43.8909" lon="0.37831">
        <ele>78</ele>
        <time>2011-09-17T12:56:27Z</time>
      </trkpt>
      <trkpt lat="43.89088" lon="0.37886">
        <ele>79</ele>
        <time>2011-09-17T12:56:59Z</time>
      </trkpt>
      <trkpt lat="43.89079" lon="0.37935">
        <ele>82</ele>
        <time>2011-09-17T12:57:32Z</time>
      </trkpt>
      <trkpt lat="43.89076" lon="0.37984">
        <ele>84</ele>
        <time>2011-09-17T12:58:06Z</time>
      </trkpt>
      <trkpt lat="43.89071" lon="0.38034">
        <ele>85</ele>
        <time>2011-09-17T12:58:36Z</time>
      </trkpt>
      <trkpt lat="43.89065" lon="0.38087">
        <ele>87</ele>
        <time>2011-09-17T12:59:09Z</time>
      </trkpt>
      <trkpt lat="43.89062" lon="0.38136">
        <ele>88</ele>
        <time>2011-09-17T12:59:39Z</time>
      </trkpt>
      <trkpt lat="43.89057" lon="0.38188">
        <ele>90</ele>
        <time>2011-09-17T13:00:11Z</time>
      </trkpt>
      <trkpt lat="43.89053" lon="0.38235">
        <ele>92</ele>
        <time>2011-09-17T13:00:44Z</time>
      </trkpt>
      <trkpt lat="43.89059" lon="0.38292">
        <ele>94</ele>
        <time>2011-09-17T13:01:21Z</time>
      </trkpt>
      <trkpt lat="43.89067" lon="0.38318">
        <ele>95</ele>
        <time>2011-09-17T13:01:40Z</time>
      </trkpt>
      <trkpt lat="43.89076" lon="0.38319">
        <ele>95</ele>
        <time>2011-09-17T13:01:51Z</time>
      </trkpt>
      <trkpt lat="43.891" lon="0.38322">
        <ele>97</ele>
        <time>2011-09-17T13:02:17Z</time>
      </trkpt>
      <trkpt lat="43.89137" lon="0.383">
        <ele>99</ele>
        <time>2011-09-17T13:02:53Z</time>
      </trkpt>
      <trkpt lat="43.8917" lon="0.38289">
        <ele>98</ele>
        <time>2011-09-17T13:03:26Z</time>
      </trkpt>
      <trkpt lat="43.89203" lon="0.38286">
        <ele>97</ele>
        <time>2011-09-17T13:04:00Z</time>
      </trkpt>
      <trkpt lat="43.89238" lon="0.38274">
        <ele>95</ele>
        <time>2011-09-17T13:04:34Z</time>
      </trkpt>
      <trkpt lat="43.8925" lon="0.38265">
        <ele>96</ele>
        <time>2011-09-17T13:04:44Z</time>
      </trkpt>
      <trkpt lat="43.89254" lon="0.38254">
        <ele>95</ele>
        <time>2011-09-17T13:04:54Z</time>
      </trkpt>
      <trkpt lat="43.89256" lon="0.38206">
        <ele>95</ele>
        <time>2011-09-17T13:05:28Z</time>
      </trkpt>
      <trkpt lat="43.8926" lon="0.38199">
        <ele>95</ele>
        <time>2011-09-17T13:05:37Z</time>
      </trkpt>
      <trkpt lat="43.89268" lon="0.38191">
        <ele>95</ele>
        <time>2011-09-17T13:05:47Z</time>
      </trkpt>
      <trkpt lat="43.89299" lon="0.38192">
        <ele>96</ele>
        <time>2011-09-17T13:06:20Z</time>
      </trkpt>
      <trkpt lat="43.89333" lon="0.38197">
        <ele>97</ele>
        <time>2011-09-17T13:06:51Z</time>
      </trkpt>
      <trkpt lat="43.8937" lon="0.38203">
        <ele>97</ele>
        <time>2011-09-17T13:07:23Z</time>
      </trkpt>
      <trkpt lat="43.89409" lon="0.38208">
        <ele>98</ele>
        <time>2011-09-17T13:07:58Z</time>
      </trkpt>
      <trkpt lat="43.89442" lon="0.38212">
        <ele>98</ele>
        <time>2011-09-17T13:08:29Z</time>
      </trkpt>
      <trkpt lat="43.89475" lon="0.38214">
        <ele>99</ele>
        <time>2011-09-17T13:09:00Z</time>
      </trkpt>
      <trkpt lat="43.89515" lon="0.38225">
        <ele>100</ele>
        <time>2011-09-17T13:09:37Z</time>
      </trkpt>
      <trkpt lat="43.89553" lon="0.38239">
        <ele>100</ele>
        <time>2011-09-17T13:10:11Z</time>
      </trkpt>
      <trkpt lat="43.89587" lon="0.38252">
        <ele>102</ele>
        <time>2011-09-17T13:10:42Z</time>
      </trkpt>
      <trkpt lat="43.89623" lon="0.38268">
        <ele>103</ele>
        <time>2011-09-17T13:11:15Z</time>
      </trkpt>
      <trkpt lat="43.89652" lon="0.38283">
        <ele>104</ele>
        <time>2011-09-17T13:11:47Z</time>
      </trkpt>
      <trkpt lat="43.89687" lon="0.38296">
        <ele>106</ele>
        <time>2011-09-17T13:12:19Z</time>
      </trkpt>
      <trkpt lat="43.89726" lon="0.38309">
        <ele>108</ele>
        <time>2011-09-17T13:12:57Z</time>
      </trkpt>
      <trkpt lat="43.89758" lon="0.38323">
        <ele>110</ele>
        <time>2011-09-17T13:13:30Z</time>
      </trkpt>
      <trkpt lat="43.89779" lon="0.38333">
        <ele>112</ele>
        <time>2011-09-17T13:13:57Z</time>
      </trkpt>
      <trkpt lat="43.8978" lon="0.38333">
        <ele>117</ele>
        <time>2011-09-17T13:15:42Z</time>
      </trkpt>
      <trkpt lat="43.89785" lon="0.38333">
        <ele>120</ele>
        <time>2011-09-17T13:17:02Z</time>
      </trkpt>
      <trkpt lat="43.89802" lon="0.3833">
        <ele>121</ele>
        <time>2011-09-17T13:17:25Z</time>
      </trkpt>
      <trkpt lat="43.89833" lon="0.38316">
        <ele>121</ele>
        <time>2011-09-17T13:17:58Z</time>
      </trkpt>
      <trkpt lat="43.89877" lon="0.3831">
        <ele>121</ele>
        <time>2011-09-17T13:18:32Z</time>
      </trkpt>
      <trkpt lat="43.89891" lon="0.38305">
        <ele>122</ele>
        <time>2011-09-17T13:18:47Z</time>
      </trkpt>
      <trkpt lat="43.89927" lon="0.38299">
        <ele>119</ele>
        <time>2011-09-17T13:19:24Z</time>
      </trkpt>
      <trkpt lat="43.89978" lon="0.38305">
        <ele>117</ele>
        <time>2011-09-17T13:20:04Z</time>
      </trkpt>
      <trkpt lat="43.90013" lon="0.38313">
        <ele>115</ele>
        <time>2011-09-17T13:20:38Z</time>
      </trkpt>
      <trkpt lat="43.90023" lon="0.38315">
        <ele>115</ele>
        <time>2011-09-17T13:20:47Z</time>
      </trkpt>
      <trkpt lat="43.90037" lon="0.38332">
        <ele>113</ele>
        <time>2011-09-17T13:21:02Z</time>
      </trkpt>
      <trkpt lat="43.90038" lon="0.38346">
        <ele>113</ele>
        <time>2011-09-17T13:21:13Z</time>
      </trkpt>
      <trkpt lat="43.90045" lon="0.38356">
        <ele>113</ele>
        <time>2011-09-17T13:21:22Z</time>
      </trkpt>
      <trkpt lat="43.90052" lon="0.38365">
        <ele>114</ele>
        <time>2011-09-17T13:21:31Z</time>
      </trkpt>
      <trkpt lat="43.90054" lon="0.38387">
        <ele>115</ele>
        <time>2011-09-17T13:21:44Z</time>
      </trkpt>
      <trkpt lat="43.90054" lon="0.38422">
        <ele>117</ele>
        <time>2011-09-17T13:22:03Z</time>
      </trkpt>
      <trkpt lat="43.90059" lon="0.38426">
        <ele>117</ele>
        <time>2011-09-17T13:22:08Z</time>
      </trkpt>
      <trkpt lat="43.90073" lon="0.38429">
        <ele>118</ele>
        <time>2011-09-17T13:22:20Z</time>
      </trkpt>
      <trkpt lat="43.90107" lon="0.38431">
        <ele>124</ele>
        <time>2011-09-17T13:22:53Z</time>
      </trkpt>
      <trkpt lat="43.90144" lon="0.38435">
        <ele>128</ele>
        <time>2011-09-17T13:23:23Z</time>
      </trkpt>
      <trkpt lat="43.90158" lon="0.3844">
        <ele>130</ele>
        <time>2011-09-17T13:23:44Z</time>
      </trkpt>
      <trkpt lat="43.90168" lon="0.38457">
        <ele>130</ele>
        <time>2011-09-17T13:23:55Z</time>
      </trkpt>
      <trkpt lat="43.90171" lon="0.38471">
        <ele>130</ele>
        <time>2011-09-17T13:24:04Z</time>
      </trkpt>
      <trkpt lat="43.90181" lon="0.38523">
        <ele>127</ele>
        <time>2011-09-17T13:24:37Z</time>
      </trkpt>
      <trkpt lat="43.90199" lon="0.38577">
        <ele>123</ele>
        <time>2011-09-17T13:25:10Z</time>
      </trkpt>
      <trkpt lat="43.90212" lon="0.38627">
        <ele>121</ele>
        <time>2011-09-17T13:25:44Z</time>
      </trkpt>
      <trkpt lat="43.90223" lon="0.38641">
        <ele>120</ele>
        <time>2011-09-17T13:25:59Z</time>
      </trkpt>
      <trkpt lat="43.90257" lon="0.38653">
        <ele>119</ele>
        <time>2011-09-17T13:26:34Z</time>
      </trkpt>
      <trkpt lat="43.90261" lon="0.38656">
        <ele>119</ele>
        <time>2011-09-17T13:26:45Z</time>
      </trkpt>
      <trkpt lat="43.90296" lon="0.38665">
        <ele>119</ele>
        <time>2011-09-17T13:27:17Z</time>
      </trkpt>
      <trkpt lat="43.90331" lon="0.38674">
        <ele>124</ele>
        <time>2011-09-17T13:27:51Z</time>
      </trkpt>
      <trkpt lat="43.90365" lon="0.38682">
        <ele>127</ele>
        <time>2011-09-17T13:28:23Z</time>
      </trkpt>
      <trkpt lat="43.90407" lon="0.38693">
        <ele>130</ele>
        <time>2011-09-17T13:28:55Z</time>
      </trkpt>
      <trkpt lat="43.90445" lon="0.38701">
        <ele>132</ele>
        <time>2011-09-17T13:29:28Z</time>
      </trkpt>
      <trkpt lat="43.90459" lon="0.38707">
        <ele>133</ele>
        <time>2011-09-17T13:29:41Z</time>
      </trkpt>
      <trkpt lat="43.90494" lon="0.38745">
        <ele>134</ele>
        <time>2011-09-17T13:30:17Z</time>
      </trkpt>
      <trkpt lat="43.90522" lon="0.38778">
        <ele>136</ele>
        <time>2011-09-17T13:30:48Z</time>
      </trkpt>
      <trkpt lat="43.90547" lon="0.38804">
        <ele>138</ele>
        <time>2011-09-17T13:31:18Z</time>
      </trkpt>
      <trkpt lat="43.9058" lon="0.38832">
        <ele>141</ele>
        <time>2011-09-17T13:31:50Z</time>
      </trkpt>
      <trkpt lat="43.90607" lon="0.38863">
        <ele>143</ele>
        <time>2011-09-17T13:32:25Z</time>
      </trkpt>
      <trkpt lat="43.90646" lon="0.38897">
        <ele>141</ele>
        <time>2011-09-17T13:33:00Z</time>
      </trkpt>
      <trkpt lat="43.90678" lon="0.3893">
        <ele>140</ele>
        <time>2011-09-17T13:33:32Z</time>
      </trkpt>
      <trkpt lat="43.90706" lon="0.38961">
        <ele>140</ele>
        <time>2011-09-17T13:34:03Z</time>
      </trkpt>
      <trkpt lat="43.90739" lon="0.38993">
        <ele>141</ele>
        <time>2011-09-17T13:34:36Z</time>
      </trkpt>
      <trkpt lat="43.90768" lon="0.39028">
        <ele>143</ele>
        <time>2011-09-17T13:35:08Z</time>
      </trkpt>
      <trkpt lat="43.90796" lon="0.3905">
        <ele>145</ele>
        <time>2011-09-17T13:35:49Z</time>
      </trkpt>
      <trkpt lat="43.908" lon="0.39055">
        <ele>145</ele>
        <time>2011-09-17T13:35:56Z</time>
      </trkpt>
      <trkpt lat="43.90814" lon="0.39056">
        <ele>146</ele>
        <time>2011-09-17T13:36:13Z</time>
      </trkpt>
      <trkpt lat="43.90847" lon="0.39054">
        <ele>147</ele>
        <time>2011-09-17T13:36:47Z</time>
      </trkpt>
      <trkpt lat="43.90878" lon="0.39041">
        <ele>149</ele>
        <time>2011-09-17T13:37:18Z</time>
      </trkpt>
      <trkpt lat="43.90911" lon="0.39009">
        <ele>150</ele>
        <time>2011-09-17T13:37:55Z</time>
      </trkpt>
      <trkpt lat="43.90943" lon="0.39004">
        <ele>150</ele>
        <time>2011-09-17T13:38:30Z</time>
      </trkpt>
      <trkpt lat="43.90982" lon="0.39004">
        <ele>147</ele>
        <time>2011-09-17T13:39:06Z</time>
      </trkpt>
      <trkpt lat="43.90991" lon="0.39">
        <ele>147</ele>
        <time>2011-09-17T13:39:14Z</time>
      </trkpt>
      <trkpt lat="43.91035" lon="0.39005">
        <ele>145</ele>
        <time>2011-09-17T13:39:48Z</time>
      </trkpt>
      <trkpt lat="43.91065" lon="0.39021">
        <ele>143</ele>
        <time>2011-09-17T13:40:18Z</time>
      </trkpt>
      <trkpt lat="43.91106" lon="0.39047">
        <ele>141</ele>
        <time>2011-09-17T13:40:52Z</time>
      </trkpt>
      <trkpt lat="43.91139" lon="0.39069">
        <ele>139</ele>
        <time>2011-09-17T13:41:24Z</time>
      </trkpt>
      <trkpt lat="43.9117" lon="0.39078">
        <ele>139</ele>
        <time>2011-09-17T13:41:50Z</time>
      </trkpt>
      <trkpt lat="43.91211" lon="0.39062">
        <ele>140</ele>
        <time>2011-09-17T13:42:24Z</time>
      </trkpt>
      <trkpt lat="43.91241" lon="0.39038">
        <ele>142</ele>
        <time>2011-09-17T13:42:54Z</time>
      </trkpt>
      <trkpt lat="43.91273" lon="0.39005">
        <ele>143</ele>
        <time>2011-09-17T13:43:26Z</time>
      </trkpt>
      <trkpt lat="43.91298" lon="0.3896">
        <ele>144</ele>
        <time>2011-09-17T13:44:00Z</time>
      </trkpt>
      <trkpt lat="43.91328" lon="0.38912">
        <ele>144</ele>
        <time>2011-09-17T13:44:36Z</time>
      </trkpt>
      <trkpt lat="43.91359" lon="0.38874">
        <ele>145</ele>
        <time>2011-09-17T13:45:09Z</time>
      </trkpt>
      <trkpt lat="43.9139" lon="0.38844">
        <ele>146</ele>
        <time>2011-09-17T13:45:40Z</time>
      </trkpt>
      <trkpt lat="43.91423" lon="0.38813">
        <ele>146</ele>
        <time>2011-09-17T13:46:11Z</time>
      </trkpt>
      <trkpt lat="43.9145" lon="0.38772">
        <ele>146</ele>
        <time>2011-09-17T13:46:45Z</time>
      </trkpt>
      <trkpt lat="43.91482" lon="0.38732">
        <ele>145</ele>
        <time>2011-09-17T13:47:19Z</time>
      </trkpt>
      <trkpt lat="43.91508" lon="0.38695">
        <ele>144</ele>
        <time>2011-09-17T13:47:52Z</time>
      </trkpt>
      <trkpt lat="43.91512" lon="0.38691">
        <ele>143</ele>
        <time>2011-09-17T13:48:00Z</time>
      </trkpt>
      <trkpt lat="43.91542" lon="0.38658">
        <ele>142</ele>
        <time>2011-09-17T13:48:31Z</time>
      </trkpt>
      <trkpt lat="43.91563" lon="0.38612">
        <ele>141</ele>
        <time>2011-09-17T13:49:04Z</time>
      </trkpt>
      <trkpt lat="43.91585" lon="0.3857">
        <ele>140</ele>
        <time>2011-09-17T13:49:36Z</time>
      </trkpt>
      <trkpt lat="43.91608" lon="0.38525">
        <ele>140</ele>
        <time>2011-09-17T13:50:08Z</time>
      </trkpt>
      <trkpt lat="43.9162" lon="0.38513">
        <ele>139</ele>
        <time>2011-09-17T13:50:20Z</time>
      </trkpt>
      <trkpt lat="43.91638" lon="0.38508">
        <ele>138</ele>
        <time>2011-09-17T13:50:38Z</time>
      </trkpt>
      <trkpt lat="43.91656" lon="0.38483">
        <ele>138</ele>
        <time>2011-09-17T13:51:06Z</time>
      </trkpt>
      <trkpt lat="43.91661" lon="0.38479">
        <ele>138</ele>
        <time>2011-09-17T13:51:31Z</time>
      </trkpt>
      <trkpt lat="43.91686" lon="0.38444">
        <ele>137</ele>
        <time>2011-09-17T13:52:07Z</time>
      </trkpt>
      <trkpt lat="43.9169" lon="0.3843">
        <ele>136</ele>
        <time>2011-09-17T13:52:20Z</time>
      </trkpt>
      <trkpt lat="43.91689" lon="0.38424">
        <ele>136</ele>
        <time>2011-09-17T13:52:27Z</time>
      </trkpt>
      <trkpt lat="43.91683" lon="0.3842">
        <ele>136</ele>
        <time>2011-09-17T13:53:23Z</time>
      </trkpt>
      <trkpt lat="43.91685" lon="0.38415">
        <ele>136</ele>
        <time>2011-09-17T13:54:34Z</time>
      </trkpt>
      <trkpt lat="43.91681" lon="0.38412">
        <ele>136</ele>
        <time>2011-09-17T13:54:58Z</time>
      </trkpt>
      <trkpt lat="43.91685" lon="0.38409">
        <ele>137</ele>
        <time>2011-09-17T13:55:29Z</time>
      </trkpt>
      <trkpt lat="43.91686" lon="0.38407">
        <ele>138</ele>
        <time>2011-09-17T13:56:41Z</time>
      </trkpt>
      <trkpt lat="43.91679" lon="0.384">
        <ele>140</ele>
        <time>2011-09-17T13:57:33Z</time>
      </trkpt>
      <trkpt lat="43.91679" lon="0.38403">
        <ele>143</ele>
        <time>2011-09-17T13:58:04Z</time>
      </trkpt>
      <trkpt lat="43.91684" lon="0.38402">
        <ele>143</ele>
        <time>2011-09-17T13:58:09Z</time>
      </trkpt>
      <trkpt lat="43.91685" lon="0.38399">
        <ele>144</ele>
        <time>2011-09-17T13:59:46Z</time>
      </trkpt>
      <trkpt lat="43.91689" lon="0.38393">
        <ele>145</ele>
        <time>2011-09-17T13:59:48Z</time>
      </trkpt>
      <trkpt lat="43.91693" lon="0.38391">
        <ele>145</ele>
        <time>2011-09-17T13:59:53Z</time>
      </trkpt>
      <trkpt lat="43.91697" lon="0.38395">
        <ele>145</ele>
        <time>2011-09-17T13:59:57Z</time>
      </trkpt>
      <trkpt lat="43.91695" lon="0.384">
        <ele>145</ele>
        <time>2011-09-17T14:00:14Z</time>
      </trkpt>
      <trkpt lat="43.91682" lon="0.38413">
        <ele>144</ele>
        <time>2011-09-17T14:00:30Z</time>
      </trkpt>
      <trkpt lat="43.91683" lon="0.38409">
        <ele>143</ele>
        <time>2011-09-17T14:01:31Z</time>
      </trkpt>
      <trkpt lat="43.91695" lon="0.38396">
        <ele>141</ele>
        <time>2011-09-17T14:02:13Z</time>
      </trkpt>
      <trkpt lat="43.91691" lon="0.38399">
        <ele>141</ele>
        <time>2011-09-17T14:02:28Z</time>
      </trkpt>
      <trkpt lat="43.91686" lon="0.38402">
        <ele>141</ele>
        <time>2011-09-17T14:02:41Z</time>
      </trkpt>
      <trkpt lat="43.91688" lon="0.38408">
        <ele>141</ele>
        <time>2011-09-17T14:02:48Z</time>
      </trkpt>
      <trkpt lat="43.91684" lon="0.3841">
        <ele>140</ele>
        <time>2011-09-17T14:03:07Z</time>
      </trkpt>
      <trkpt lat="43.91684" lon="0.38404">
        <ele>140</ele>
        <time>2011-09-17T14:03:45Z</time>
      </trkpt>
      <trkpt lat="43.91679" lon="0.38406">
        <ele>140</ele>
        <time>2011-09-17T14:03:56Z</time>
      </trkpt>
      <trkpt lat="43.91678" lon="0.38413">
        <ele>140</ele>
        <time>2011-09-17T14:04:01Z</time>
      </trkpt>
      <trkpt lat="43.91678" lon="0.38412">
        <ele>142</ele>
        <time>2011-09-17T14:05:18Z</time>
      </trkpt>
      <trkpt lat="43.91683" lon="0.38412">
        <ele>142</ele>
        <time>2011-09-17T14:05:23Z</time>
      </trkpt>
      <trkpt lat="43.91699" lon="0.38418">
        <ele>143</ele>
        <time>2011-09-17T14:05:45Z</time>
      </trkpt>
      <trkpt lat="43.91704" lon="0.38417">
        <ele>143</ele>
        <time>2011-09-17T14:05:50Z</time>
      </trkpt>
      <trkpt lat="43.91712" lon="0.38411">
        <ele>143</ele>
        <time>2011-09-17T14:06:00Z</time>
      </trkpt>
      <trkpt lat="43.91729" lon="0.38375">
        <ele>143</ele>
        <time>2011-09-17T14:06:31Z</time>
      </trkpt>
      <trkpt lat="43.91742" lon="0.38325">
        <ele>143</ele>
        <time>2011-09-17T14:07:02Z</time>
      </trkpt>
      <trkpt lat="43.91754" lon="0.38272">
        <ele>142</ele>
        <time>2011-09-17T14:07:35Z</time>
      </trkpt>
      <trkpt lat="43.91774" lon="0.38226">
        <ele>141</ele>
        <time>2011-09-17T14:08:05Z</time>
      </trkpt>
      <trkpt lat="43.91814" lon="0.38212">
        <ele>140</ele>
        <time>2011-09-17T14:08:39Z</time>
      </trkpt>
      <trkpt lat="43.91856" lon="0.38204">
        <ele>138</ele>
        <time>2011-09-17T14:09:12Z</time>
      </trkpt>
      <trkpt lat="43.91899" lon="0.38199">
        <ele>136</ele>
        <time>2011-09-17T14:09:44Z</time>
      </trkpt>
      <trkpt lat="43.91941" lon="0.38189">
        <ele>133</ele>
        <time>2011-09-17T14:10:16Z</time>
      </trkpt>
      <trkpt lat="43.91974" lon="0.38165">
        <ele>130</ele>
        <time>2011-09-17T14:10:49Z</time>
      </trkpt>
      <trkpt lat="43.91984" lon="0.38166">
        <ele>130</ele>
        <time>2011-09-17T14:10:57Z</time>
      </trkpt>
      <trkpt lat="43.92027" lon="0.3817">
        <ele>128</ele>
        <time>2011-09-17T14:11:34Z</time>
      </trkpt>
      <trkpt lat="43.9207" lon="0.38191">
        <ele>125</ele>
        <time>2011-09-17T14:12:06Z</time>
      </trkpt>
      <trkpt lat="43.92099" lon="0.38199">
        <ele>123</ele>
        <time>2011-09-17T14:12:31Z</time>
      </trkpt>
      <trkpt lat="43.92139" lon="0.38183">
        <ele>120</ele>
        <time>2011-09-17T14:13:03Z</time>
      </trkpt>
      <trkpt lat="43.92179" lon="0.3817">
        <ele>117</ele>
        <time>2011-09-17T14:13:35Z</time>
      </trkpt>
      <trkpt lat="43.92184" lon="0.38172">
        <ele>117</ele>
        <time>2011-09-17T14:13:39Z</time>
      </trkpt>
      <trkpt lat="43.92187" lon="0.38179">
        <ele>116</ele>
        <time>2011-09-17T14:13:44Z</time>
      </trkpt>
      <trkpt lat="43.92205" lon="0.38218">
        <ele>113</ele>
        <time>2011-09-17T14:14:14Z</time>
      </trkpt>
      <trkpt lat="43.92227" lon="0.38262">
        <ele>110</ele>
        <time>2011-09-17T14:14:45Z</time>
      </trkpt>
      <trkpt lat="43.92259" lon="0.38306">
        <ele>107</ele>
        <time>2011-09-17T14:15:20Z</time>
      </trkpt>
      <trkpt lat="43.92296" lon="0.38341">
        <ele>104</ele>
        <time>2011-09-17T14:15:59Z</time>
      </trkpt>
      <trkpt lat="43.9233" lon="0.38366">
        <ele>102</ele>
        <time>2011-09-17T14:16:32Z</time>
      </trkpt>
      <trkpt lat="43.92365" lon="0.38391">
        <ele>101</ele>
        <time>2011-09-17T14:17:03Z</time>
      </trkpt>
      <trkpt lat="43.92399" lon="0.38425">
        <ele>101</ele>
        <time>2011-09-17T14:17:35Z</time>
      </trkpt>
      <trkpt lat="43.92431" lon="0.3846">
        <ele>99</ele>
        <time>2011-09-17T14:18:08Z</time>
      </trkpt>
      <trkpt lat="43.92466" lon="0.38496">
        <ele>98</ele>
        <time>2011-09-17T14:18:45Z</time>
      </trkpt>
      <trkpt lat="43.92471" lon="0.38498">
        <ele>98</ele>
        <time>2011-09-17T14:18:50Z</time>
      </trkpt>
      <trkpt lat="43.92476" lon="0.38494">
        <ele>97</ele>
        <time>2011-09-17T14:18:55Z</time>
      </trkpt>
      <trkpt lat="43.9249" lon="0.38463">
        <ele>96</ele>
        <time>2011-09-17T14:19:17Z</time>
      </trkpt>
      <trkpt lat="43.92491" lon="0.38457">
        <ele>96</ele>
        <time>2011-09-17T14:19:21Z</time>
      </trkpt>
      <trkpt lat="43.92499" lon="0.38447">
        <ele>95</ele>
        <time>2011-09-17T14:19:31Z</time>
      </trkpt>
      <trkpt lat="43.92527" lon="0.38416">
        <ele>95</ele>
        <time>2011-09-17T14:20:03Z</time>
      </trkpt>
      <trkpt lat="43.92536" lon="0.38396">
        <ele>95</ele>
        <time>2011-09-17T14:20:15Z</time>
      </trkpt>
      <trkpt lat="43.92545" lon="0.38393">
        <ele>95</ele>
        <time>2011-09-17T14:20:24Z</time>
      </trkpt>
      <trkpt lat="43.92556" lon="0.38393">
        <ele>95</ele>
        <time>2011-09-17T14:20:33Z</time>
      </trkpt>
      <trkpt lat="43.92568" lon="0.38406">
        <ele>94</ele>
        <time>2011-09-17T14:20:48Z</time>
      </trkpt>
      <trkpt lat="43.92573" lon="0.38406">
        <ele>94</ele>
        <time>2011-09-17T14:20:52Z</time>
      </trkpt>
      <trkpt lat="43.92605" lon="0.38386">
        <ele>95</ele>
        <time>2011-09-17T14:21:23Z</time>
      </trkpt>
      <trkpt lat="43.92625" lon="0.38342">
        <ele>95</ele>
        <time>2011-09-17T14:21:56Z</time>
      </trkpt>
      <trkpt lat="43.92632" lon="0.38326">
        <ele>95</ele>
        <time>2011-09-17T14:22:09Z</time>
      </trkpt>
      <trkpt lat="43.9265" lon="0.38307">
        <ele>95</ele>
        <time>2011-09-17T14:22:34Z</time>
      </trkpt>
      <trkpt lat="43.92662" lon="0.38312">
        <ele>95</ele>
        <time>2011-09-17T14:23:01Z</time>
      </trkpt>
      <trkpt lat="43.92663" lon="0.3832">
        <ele>95</ele>
        <time>2011-09-17T14:23:38Z</time>
      </trkpt>
      <trkpt lat="43.92665" lon="0.38325">
        <ele>95</ele>
        <time>2011-09-17T14:23:54Z</time>
      </trkpt>
      <trkpt lat="43.92668" lon="0.38326">
        <ele>95</ele>
        <time>2011-09-17T14:24:02Z</time>
      </trkpt>
      <trkpt lat="43.92677" lon="0.3833">
        <ele>94</ele>
        <time>2011-09-17T14:24:29Z</time>
      </trkpt>
      <trkpt lat="43.92679" lon="0.38343">
        <ele>94</ele>
        <time>2011-09-17T14:24:41Z</time>
      </trkpt>
      <trkpt lat="43.92686" lon="0.38351">
        <ele>93</ele>
        <time>2011-09-17T14:24:48Z</time>
      </trkpt>
      <trkpt lat="43.92695" lon="0.38356">
        <ele>92</ele>
        <time>2011-09-17T14:24:55Z</time>
      </trkpt>
      <trkpt lat="43.92711" lon="0.38369">
        <ele>90</ele>
        <time>2011-09-17T14:25:35Z</time>
      </trkpt>
      <trkpt lat="43.92743" lon="0.38399">
        <ele>90</ele>
        <time>2011-09-17T14:26:08Z</time>
      </trkpt>
      <trkpt lat="43.92773" lon="0.38432">
        <ele>90</ele>
        <time>2011-09-17T14:26:39Z</time>
      </trkpt>
      <trkpt lat="43.928" lon="0.38464">
        <ele>91</ele>
        <time>2011-09-17T14:27:11Z</time>
      </trkpt>
      <trkpt lat="43.92819" lon="0.38497">
        <ele>93</ele>
        <time>2011-09-17T14:27:43Z</time>
      </trkpt>
      <trkpt lat="43.92843" lon="0.3853">
        <ele>95</ele>
        <time>2011-09-17T14:28:16Z</time>
      </trkpt>
      <trkpt lat="43.92851" lon="0.38537">
        <ele>95</ele>
        <time>2011-09-17T14:28:24Z</time>
      </trkpt>
      <trkpt lat="43.92876" lon="0.38568">
        <ele>96</ele>
        <time>2011-09-17T14:28:56Z</time>
      </trkpt>
      <trkpt lat="43.9291" lon="0.38602">
        <ele>97</ele>
        <time>2011-09-17T14:29:30Z</time>
      </trkpt>
      <trkpt lat="43.92933" lon="0.38633">
        <ele>99</ele>
        <time>2011-09-17T14:30:01Z</time>
      </trkpt>
      <trkpt lat="43.92938" lon="0.38642">
        <ele>100</ele>
        <time>2011-09-17T14:30:10Z</time>
      </trkpt>
      <trkpt lat="43.92939" lon="0.38649">
        <ele>100</ele>
        <time>2011-09-17T14:30:15Z</time>
      </trkpt>
      <trkpt lat="43.92947" lon="0.38658">
        <ele>101</ele>
        <time>2011-09-17T14:30:26Z</time>
      </trkpt>
      <trkpt lat="43.9297" lon="0.38686">
        <ele>103</ele>
        <time>2011-09-17T14:30:57Z</time>
      </trkpt>
      <trkpt lat="43.92995" lon="0.38723">
        <ele>106</ele>
        <time>2011-09-17T14:31:36Z</time>
      </trkpt>
      <trkpt lat="43.93" lon="0.38734">
        <ele>107</ele>
        <time>2011-09-17T14:31:47Z</time>
      </trkpt>
      <trkpt lat="43.93005" lon="0.38741">
        <ele>110</ele>
        <time>2011-09-17T14:32:20Z</time>
      </trkpt>
      <trkpt lat="43.93006" lon="0.38744">
        <ele>111</ele>
        <time>2011-09-17T14:32:26Z</time>
      </trkpt>
      <trkpt lat="43.93017" lon="0.38757">
        <ele>115</ele>
        <time>2011-09-17T14:32:42Z</time>
      </trkpt>
      <trkpt lat="43.93036" lon="0.38774">
        <ele>118</ele>
        <time>2011-09-17T14:33:05Z</time>
      </trkpt>
      <trkpt lat="43.93055" lon="0.38795">
        <ele>118</ele>
        <time>2011-09-17T14:33:30Z</time>
      </trkpt>
      <trkpt lat="43.93075" lon="0.3882">
        <ele>122</ele>
        <time>2011-09-17T14:34:06Z</time>
      </trkpt>
      <trkpt lat="43.9308" lon="0.38823">
        <ele>123</ele>
        <time>2011-09-17T14:34:11Z</time>
      </trkpt>
      <trkpt lat="43.9311" lon="0.38844">
        <ele>126</ele>
        <time>2011-09-17T14:34:43Z</time>
      </trkpt>
      <trkpt lat="43.93129" lon="0.38857">
        <ele>130</ele>
        <time>2011-09-17T14:35:22Z</time>
      </trkpt>
      <trkpt lat="43.93133" lon="0.38845">
        <ele>132</ele>
        <time>2011-09-17T14:35:45Z</time>
      </trkpt>
      <trkpt lat="43.93136" lon="0.3884">
        <ele>133</ele>
        <time>2011-09-17T14:35:50Z</time>
      </trkpt>
      <trkpt lat="43.93141" lon="0.38839">
        <ele>134</ele>
        <time>2011-09-17T14:35:56Z</time>
      </trkpt>
      <trkpt lat="43.93168" lon="0.3886">
        <ele>139</ele>
        <time>2011-09-17T14:36:28Z</time>
      </trkpt>
      <trkpt lat="43.9317" lon="0.38866">
        <ele>140</ele>
        <time>2011-09-17T14:36:33Z</time>
      </trkpt>
      <trkpt lat="43.93169" lon="0.38874">
        <ele>140</ele>
        <time>2011-09-17T14:36:38Z</time>
      </trkpt>
      <trkpt lat="43.93166" lon="0.38878">
        <ele>141</ele>
        <time>2011-09-17T14:36:44Z</time>
      </trkpt>
      <trkpt lat="43.93163" lon="0.38877">
        <ele>143</ele>
        <time>2011-09-17T14:37:31Z</time>
      </trkpt>
      <trkpt lat="43.93168" lon="0.38871">
        <ele>143</ele>
        <time>2011-09-17T14:37:58Z</time>
      </trkpt>
      <trkpt lat="43.93185" lon="0.38847">
        <ele>145</ele>
        <time>2011-09-17T14:38:31Z</time>
      </trkpt>
      <trkpt lat="43.93198" lon="0.38838">
        <ele>145</ele>
        <time>2011-09-17T14:38:45Z</time>
      </trkpt>
      <trkpt lat="43.93215" lon="0.38795">
        <ele>146</ele>
        <time>2011-09-17T14:39:18Z</time>
      </trkpt>
      <trkpt lat="43.93232" lon="0.38748">
        <ele>147</ele>
        <time>2011-09-17T14:39:51Z</time>
      </trkpt>
      <trkpt lat="43.93251" lon="0.38704">
        <ele>147</ele>
        <time>2011-09-17T14:40:22Z</time>
      </trkpt>
      <trkpt lat="43.93271" lon="0.38654">
        <ele>147</ele>
        <time>2011-09-17T14:40:57Z</time>
      </trkpt>
      <trkpt lat="43.93286" lon="0.38611">
        <ele>147</ele>
        <time>2011-09-17T14:41:28Z</time>
      </trkpt>
      <trkpt lat="43.93302" lon="0.38565">
        <ele>146</ele>
        <time>2011-09-17T14:42:02Z</time>
      </trkpt>
      <trkpt lat="43.93312" lon="0.3852">
        <ele>145</ele>
        <time>2011-09-17T14:42:33Z</time>
      </trkpt>
      <trkpt lat="43.93325" lon="0.38476">
        <ele>143</ele>
        <time>2011-09-17T14:43:02Z</time>
      </trkpt>
      <trkpt lat="43.93345" lon="0.38456">
        <ele>141</ele>
        <time>2011-09-17T14:43:26Z</time>
      </trkpt>
      <trkpt lat="43.93347" lon="0.38455">
        <ele>141</ele>
        <time>2011-09-17T14:43:48Z</time>
      </trkpt>
      <trkpt lat="43.93384" lon="0.38449">
        <ele>141</ele>
        <time>2011-09-17T14:44:21Z</time>
      </trkpt>
      <trkpt lat="43.93392" lon="0.38447">
        <ele>141</ele>
        <time>2011-09-17T14:44:27Z</time>
      </trkpt>
      <trkpt lat="43.93422" lon="0.38435">
        <ele>139</ele>
        <time>2011-09-17T14:45:05Z</time>
      </trkpt>
      <trkpt lat="43.93464" lon="0.38431">
        <ele>136</ele>
        <time>2011-09-17T14:45:38Z</time>
      </trkpt>
      <trkpt lat="43.93493" lon="0.38427">
        <ele>133</ele>
        <time>2011-09-17T14:46:02Z</time>
      </trkpt>
      <trkpt lat="43.93527" lon="0.38442">
        <ele>129</ele>
        <time>2011-09-17T14:46:33Z</time>
      </trkpt>
      <trkpt lat="43.93574" lon="0.3846">
        <ele>123</ele>
        <time>2011-09-17T14:47:11Z</time>
      </trkpt>
      <trkpt lat="43.93613" lon="0.38468">
        <ele>118</ele>
        <time>2011-09-17T14:47:43Z</time>
      </trkpt>
      <trkpt lat="43.9365" lon="0.38478">
        <ele>113</ele>
        <time>2011-09-17T14:48:16Z</time>
      </trkpt>
      <trkpt lat="43.93688" lon="0.38486">
        <ele>110</ele>
        <time>2011-09-17T14:48:49Z</time>
      </trkpt>
      <trkpt lat="43.93728" lon="0.38496">
        <ele>107</ele>
        <time>2011-09-17T14:49:22Z</time>
      </trkpt>
      <trkpt lat="43.9377" lon="0.38508">
        <ele>103</ele>
        <time>2011-09-17T14:49:56Z</time>
      </trkpt>
      <trkpt lat="43.93795" lon="0.38516">
        <ele>101</ele>
        <time>2011-09-17T14:50:30Z</time>
      </trkpt>
      <trkpt lat="43.93827" lon="0.3853">
        <ele>98</ele>
        <time>2011-09-17T14:51:05Z</time>
      </trkpt>
      <trkpt lat="43.93871" lon="0.38541">
        <ele>96</ele>
        <time>2011-09-17T14:51:40Z</time>
      </trkpt>
      <trkpt lat="43.93909" lon="0.38569">
        <ele>93</ele>
        <time>2011-09-17T14:52:10Z</time>
      </trkpt>
      <trkpt lat="43.93943" lon="0.38597">
        <ele>91</ele>
        <time>2011-09-17T14:52:42Z</time>
      </trkpt>
      <trkpt lat="43.93974" lon="0.38619">
        <ele>90</ele>
        <time>2011-09-17T14:53:13Z</time>
      </trkpt>
      <trkpt lat="43.94013" lon="0.38613">
        <ele>90</ele>
        <time>2011-09-17T14:53:51Z</time>
      </trkpt>
      <trkpt lat="43.94043" lon="0.38609">
        <ele>89</ele>
        <time>2011-09-17T14:54:28Z</time>
      </trkpt>
      <trkpt lat="43.94085" lon="0.38622">
        <ele>91</ele>
        <time>2011-09-17T14:55:01Z</time>
      </trkpt>
      <trkpt lat="43.94117" lon="0.3864">
        <ele>93</ele>
        <time>2011-09-17T14:55:35Z</time>
      </trkpt>
      <trkpt lat="43.94157" lon="0.38658">
        <ele>96</ele>
        <time>2011-09-17T14:56:05Z</time>
      </trkpt>
      <trkpt lat="43.94183" lon="0.38673">
        <ele>98</ele>
        <time>2011-09-17T14:56:39Z</time>
      </trkpt>
      <trkpt lat="43.94185" lon="0.38672">
        <ele>97</ele>
        <time>2011-09-17T14:59:34Z</time>
      </trkpt>
      <trkpt lat="43.94191" lon="0.38676">
        <ele>97</ele>
        <time>2011-09-17T15:00:52Z</time>
      </trkpt>
      <trkpt lat="43.94202" lon="0.3868">
        <ele>97</ele>
        <time>2011-09-17T15:01:03Z</time>
      </trkpt>
      <trkpt lat="43.94234" lon="0.38703">
        <ele>98</ele>
        <time>2011-09-17T15:01:36Z</time>
      </trkpt>
      <trkpt lat="43.94251" lon="0.38716">
        <ele>98</ele>
        <time>2011-09-17T15:01:55Z</time>
      </trkpt>
      <trkpt lat="43.94285" lon="0.38698">
        <ele>99</ele>
        <time>2011-09-17T15:02:25Z</time>
      </trkpt>
      <trkpt lat="43.94323" lon="0.38671">
        <ele>98</ele>
        <time>2011-09-17T15:03:01Z</time>
      </trkpt>
      <trkpt lat="43.94358" lon="0.38643">
        <ele>96</ele>
        <time>2011-09-17T15:03:34Z</time>
      </trkpt>
      <trkpt lat="43.94388" lon="0.38624">
        <ele>95</ele>
        <time>2011-09-17T15:04:05Z</time>
      </trkpt>
      <trkpt lat="43.94426" lon="0.38595">
        <ele>94</ele>
        <time>2011-09-17T15:04:40Z</time>
      </trkpt>
      <trkpt lat="43.94456" lon="0.38568">
        <ele>92</ele>
        <time>2011-09-17T15:05:15Z</time>
      </trkpt>
      <trkpt lat="43.94496" lon="0.38558">
        <ele>89</ele>
        <time>2011-09-17T15:05:53Z</time>
      </trkpt>
      <trkpt lat="43.94539" lon="0.38539">
        <ele>86</ele>
        <time>2011-09-17T15:06:21Z</time>
      </trkpt>
      <trkpt lat="43.94562" lon="0.38507">
        <ele>83</ele>
        <time>2011-09-17T15:06:56Z</time>
      </trkpt>
      <trkpt lat="43.94566" lon="0.38504">
        <ele>83</ele>
        <time>2011-09-17T15:07:12Z</time>
      </trkpt>
      <trkpt lat="43.94575" lon="0.38505">
        <ele>82</ele>
        <time>2011-09-17T15:08:04Z</time>
      </trkpt>
      <trkpt lat="43.94581" lon="0.38498">
        <ele>81</ele>
        <time>2011-09-17T15:08:50Z</time>
      </trkpt>
      <trkpt lat="43.94585" lon="0.38492">
        <ele>80</ele>
        <time>2011-09-17T15:09:19Z</time>
      </trkpt>
      <trkpt lat="43.94614" lon="0.38472">
        <ele>79</ele>
        <time>2011-09-17T15:09:50Z</time>
      </trkpt>
      <trkpt lat="43.94645" lon="0.3845">
        <ele>79</ele>
        <time>2011-09-17T15:10:21Z</time>
      </trkpt>
      <trkpt lat="43.94675" lon="0.38427">
        <ele>79</ele>
        <time>2011-09-17T15:10:51Z</time>
      </trkpt>
      <trkpt lat="43.94707" lon="0.3841">
        <ele>79</ele>
        <time>2011-09-17T15:11:22Z</time>
      </trkpt>
      <trkpt lat="43.94747" lon="0.38386">
        <ele>79</ele>
        <time>2011-09-17T15:12:00Z</time>
      </trkpt>
      <trkpt lat="43.94784" lon="0.3836">
        <ele>78</ele>
        <time>2011-09-17T15:12:35Z</time>
      </trkpt>
      <trkpt lat="43.94816" lon="0.38334">
        <ele>78</ele>
        <time>2011-09-17T15:13:07Z</time>
      </trkpt>
      <trkpt lat="43.9485" lon="0.38313">
        <ele>78</ele>
        <time>2011-09-17T15:13:38Z</time>
      </trkpt>
      <trkpt lat="43.94886" lon="0.3829">
        <ele>78</ele>
        <time>2011-09-17T15:14:12Z</time>
      </trkpt>
      <trkpt lat="43.94927" lon="0.38262">
        <ele>77</ele>
        <time>2011-09-17T15:14:50Z</time>
      </trkpt>
      <trkpt lat="43.94962" lon="0.38236">
        <ele>77</ele>
        <time>2011-09-17T15:15:25Z</time>
      </trkpt>
      <trkpt lat="43.94998" lon="0.38211">
        <ele>77</ele>
        <time>2011-09-17T15:15:58Z</time>
      </trkpt>
      <trkpt lat="43.95031" lon="0.38187">
        <ele>78</ele>
        <time>2011-09-17T15:16:30Z</time>
      </trkpt>
      <trkpt lat="43.95061" lon="0.38164">
        <ele>79</ele>
        <time>2011-09-17T15:17:02Z</time>
      </trkpt>
      <trkpt lat="43.95093" lon="0.38141">
        <ele>80</ele>
        <time>2011-09-17T15:17:34Z</time>
      </trkpt>
      <trkpt lat="43.95125" lon="0.38119">
        <ele>80</ele>
        <time>2011-09-17T15:18:05Z</time>
      </trkpt>
      <trkpt lat="43.95161" lon="0.38091">
        <ele>80</ele>
        <time>2011-09-17T15:18:40Z</time>
      </trkpt>
      <trkpt lat="43.95194" lon="0.38064">
        <ele>80</ele>
        <time>2011-09-17T15:19:14Z</time>
      </trkpt>
      <trkpt lat="43.95229" lon="0.38038">
        <ele>81</ele>
        <time>2011-09-17T15:19:45Z</time>
      </trkpt>
      <trkpt lat="43.95266" lon="0.38017">
        <ele>82</ele>
        <time>2011-09-17T15:20:19Z</time>
      </trkpt>
      <trkpt lat="43.95303" lon="0.37989">
        <ele>83</ele>
        <time>2011-09-17T15:20:57Z</time>
      </trkpt>
      <trkpt lat="43.95333" lon="0.37962">
        <ele>83</ele>
        <time>2011-09-17T15:21:28Z</time>
      </trkpt>
      <trkpt lat="43.95362" lon="0.3794">
        <ele>83</ele>
        <time>2011-09-17T15:21:58Z</time>
      </trkpt>
      <trkpt lat="43.95402" lon="0.37918">
        <ele>83</ele>
        <time>2011-09-17T15:22:33Z</time>
      </trkpt>
      <trkpt lat="43.95436" lon="0.37892">
        <ele>82</ele>
        <time>2011-09-17T15:23:12Z</time>
      </trkpt>
      <trkpt lat="43.95469" lon="0.37865">
        <ele>79</ele>
        <time>2011-09-17T15:23:44Z</time>
      </trkpt>
      <trkpt lat="43.95504" lon="0.3784">
        <ele>78</ele>
        <time>2011-09-17T15:24:23Z</time>
      </trkpt>
      <trkpt lat="43.95538" lon="0.37815">
        <ele>77</ele>
        <time>2011-09-17T15:24:54Z</time>
      </trkpt>
      <trkpt lat="43.95557" lon="0.37782">
        <ele>77</ele>
        <time>2011-09-17T15:25:40Z</time>
      </trkpt>
      <trkpt lat="43.9558" lon="0.37744">
        <ele>77</ele>
        <time>2011-09-17T15:26:11Z</time>
      </trkpt>
      <trkpt lat="43.95606" lon="0.37706">
        <ele>77</ele>
        <time>2011-09-17T15:26:42Z</time>
      </trkpt>
      <trkpt lat="43.95608" lon="0.37699">
        <ele>77</ele>
        <time>2011-09-17T15:26:47Z</time>
      </trkpt>
      <trkpt lat="43.95635" lon="0.37659">
        <ele>78</ele>
        <time>2011-09-17T15:27:20Z</time>
      </trkpt>
      <trkpt lat="43.95661" lon="0.37623">
        <ele>78</ele>
        <time>2011-09-17T15:27:52Z</time>
      </trkpt>
      <trkpt lat="43.95678" lon="0.3759">
        <ele>78</ele>
        <time>2011-09-17T15:28:21Z</time>
      </trkpt>
      <trkpt lat="43.95678" lon="0.37582">
        <ele>78</ele>
        <time>2011-09-17T15:28:27Z</time>
      </trkpt>
      <trkpt lat="43.95687" lon="0.37577">
        <ele>78</ele>
        <time>2011-09-17T15:28:37Z</time>
      </trkpt>
      <trkpt lat="43.95698" lon="0.37557">
        <ele>80</ele>
        <time>2011-09-17T15:28:59Z</time>
      </trkpt>
      <trkpt lat="43.95706" lon="0.37514">
        <ele>81</ele>
        <time>2011-09-17T15:29:31Z</time>
      </trkpt>
      <trkpt lat="43.95709" lon="0.3751">
        <ele>81</ele>
        <time>2011-09-17T15:29:36Z</time>
      </trkpt>
      <trkpt lat="43.95724" lon="0.37473">
        <ele>79</ele>
        <time>2011-09-17T15:30:10Z</time>
      </trkpt>
      <trkpt lat="43.95747" lon="0.37429">
        <ele>75</ele>
        <time>2011-09-17T15:30:50Z</time>
      </trkpt>
      <trkpt lat="43.95752" lon="0.37391">
        <ele>73</ele>
        <time>2011-09-17T15:31:45Z</time>
      </trkpt>
      <trkpt lat="43.95755" lon="0.37382">
        <ele>73</ele>
        <time>2011-09-17T15:31:58Z</time>
      </trkpt>
      <trkpt lat="43.9576" lon="0.37382">
        <ele>75</ele>
        <time>2011-09-17T15:33:34Z</time>
      </trkpt>
      <trkpt lat="43.95762" lon="0.37362">
        <ele>76</ele>
        <time>2011-09-17T15:34:02Z</time>
      </trkpt>
      <trkpt lat="43.95759" lon="0.37356">
        <ele>76</ele>
        <time>2011-09-17T15:34:10Z</time>
      </trkpt>
      <trkpt lat="43.9576" lon="0.37349">
        <ele>76</ele>
        <time>2011-09-17T15:34:17Z</time>
      </trkpt>
      <trkpt lat="43.95768" lon="0.37331">
        <ele>76</ele>
        <time>2011-09-17T15:34:36Z</time>
      </trkpt>
    </trkseg>
  </trk>
</gpx>